<?xml version="1.0" encoding="UTF-8" standalone="no" ?>
<gpx xmlns="http://www.topografix.com/GPX/1/1" xmlns:xsi="http://www.w3.org/2001/XMLSchema-instance" xsi:schemaLocation="http://www.topografix.com/GPX/1/1 http://www.topografix.com/GPX/1/1/gpx.xsd" version="1.1" creator="VisuGPX - https://www.visugpx.com">
  <metadata>
    <name>2019-08-13_VTT avec Julien</name>
  </metadata>
  <trk>
    <name><![CDATA[2019-08-13_Grèzes, La Clauze, Le Pin, Parjat, Marrasogne, Pont de la Fageolle, Grèzes]]></name>
    <trkseg>
      <trkpt lat="44.92036" lon="3.48664">
        <ele>1115.7473144531</ele>
        <time>2019-08-13T16:09:47Z</time>
      </trkpt>
      <trkpt lat="44.92037" lon="3.48664">
        <ele>1115.7473144531</ele>
        <time>2019-08-13T16:11:09Z</time>
      </trkpt>
      <trkpt lat="44.92028" lon="3.48648">
        <ele>1114.7858886719</ele>
        <time>2019-08-13T16:11:15Z</time>
      </trkpt>
      <trkpt lat="44.92005" lon="3.48661">
        <ele>1111.4213867188</ele>
        <time>2019-08-13T16:11:21Z</time>
      </trkpt>
      <trkpt lat="44.91975" lon="3.48694">
        <ele>1108.0568847656</ele>
        <time>2019-08-13T16:11:29Z</time>
      </trkpt>
      <trkpt lat="44.91955" lon="3.48705">
        <ele>1106.1340332031</ele>
        <time>2019-08-13T16:11:33Z</time>
      </trkpt>
      <trkpt lat="44.91935" lon="3.48698">
        <ele>1106.6147460938</ele>
        <time>2019-08-13T16:11:38Z</time>
      </trkpt>
      <trkpt lat="44.91926" lon="3.48692">
        <ele>1104.2116699219</ele>
        <time>2019-08-13T16:11:40Z</time>
      </trkpt>
      <trkpt lat="44.91916" lon="3.48701">
        <ele>1103.2502441406</ele>
        <time>2019-08-13T16:11:45Z</time>
      </trkpt>
      <trkpt lat="44.91912" lon="3.48718">
        <ele>1103.2502441406</ele>
        <time>2019-08-13T16:11:48Z</time>
      </trkpt>
      <trkpt lat="44.91915" lon="3.48742">
        <ele>1100.3664550781</ele>
        <time>2019-08-13T16:11:52Z</time>
      </trkpt>
      <trkpt lat="44.91892" lon="3.48748">
        <ele>1097.962890625</ele>
        <time>2019-08-13T16:12:00Z</time>
      </trkpt>
      <trkpt lat="44.91886" lon="3.48736">
        <ele>1096.5209960938</ele>
        <time>2019-08-13T16:12:02Z</time>
      </trkpt>
      <trkpt lat="44.91881" lon="3.48724">
        <ele>1096.0402832031</ele>
        <time>2019-08-13T16:12:04Z</time>
      </trkpt>
      <trkpt lat="44.91875" lon="3.48711">
        <ele>1094.5981445312</ele>
        <time>2019-08-13T16:12:06Z</time>
      </trkpt>
      <trkpt lat="44.91867" lon="3.48706">
        <ele>1093.15625</ele>
        <time>2019-08-13T16:12:09Z</time>
      </trkpt>
      <trkpt lat="44.91863" lon="3.48709">
        <ele>1092.1950683594</ele>
        <time>2019-08-13T16:12:10Z</time>
      </trkpt>
      <trkpt lat="44.91843" lon="3.48727">
        <ele>1090.7529296875</ele>
        <time>2019-08-13T16:12:14Z</time>
      </trkpt>
      <trkpt lat="44.91827" lon="3.48752">
        <ele>1089.3110351562</ele>
        <time>2019-08-13T16:12:18Z</time>
      </trkpt>
      <trkpt lat="44.91766" lon="3.48813">
        <ele>1085.4658203125</ele>
        <time>2019-08-13T16:12:31Z</time>
      </trkpt>
      <trkpt lat="44.9176" lon="3.48818">
        <ele>1085.4658203125</ele>
        <time>2019-08-13T16:12:32Z</time>
      </trkpt>
      <trkpt lat="44.91748" lon="3.48828">
        <ele>1084.9853515625</ele>
        <time>2019-08-13T16:12:35Z</time>
      </trkpt>
      <trkpt lat="44.91731" lon="3.4883">
        <ele>1083.54296875</ele>
        <time>2019-08-13T16:12:39Z</time>
      </trkpt>
      <trkpt lat="44.91672" lon="3.48876">
        <ele>1080.1784667969</ele>
        <time>2019-08-13T16:12:52Z</time>
      </trkpt>
      <trkpt lat="44.91631" lon="3.48913">
        <ele>1077.2946777344</ele>
        <time>2019-08-13T16:13:01Z</time>
      </trkpt>
      <trkpt lat="44.91627" lon="3.48918">
        <ele>1077.2946777344</ele>
        <time>2019-08-13T16:13:02Z</time>
      </trkpt>
      <trkpt lat="44.91608" lon="3.48934">
        <ele>1077.2946777344</ele>
        <time>2019-08-13T16:13:10Z</time>
      </trkpt>
      <trkpt lat="44.91569" lon="3.48971">
        <ele>1073.9299316406</ele>
        <time>2019-08-13T16:13:21Z</time>
      </trkpt>
      <trkpt lat="44.91561" lon="3.4898">
        <ele>1072.96875</ele>
        <time>2019-08-13T16:13:23Z</time>
      </trkpt>
      <trkpt lat="44.91524" lon="3.49024">
        <ele>1070.0847167969</ele>
        <time>2019-08-13T16:13:33Z</time>
      </trkpt>
      <trkpt lat="44.91513" lon="3.49041">
        <ele>1067.6811523438</ele>
        <time>2019-08-13T16:13:36Z</time>
      </trkpt>
      <trkpt lat="44.9149" lon="3.49067">
        <ele>1065.7587890625</ele>
        <time>2019-08-13T16:13:45Z</time>
      </trkpt>
      <trkpt lat="44.91474" lon="3.49078">
        <ele>1064.7973632812</ele>
        <time>2019-08-13T16:13:50Z</time>
      </trkpt>
      <trkpt lat="44.91458" lon="3.49087">
        <ele>1064.3166503906</ele>
        <time>2019-08-13T16:13:54Z</time>
      </trkpt>
      <trkpt lat="44.9142" lon="3.49114">
        <ele>1063.8359375</ele>
        <time>2019-08-13T16:14:07Z</time>
      </trkpt>
      <trkpt lat="44.9139" lon="3.49155">
        <ele>1064.7973632812</ele>
        <time>2019-08-13T16:14:20Z</time>
      </trkpt>
      <trkpt lat="44.91389" lon="3.49187">
        <ele>1065.2780761719</ele>
        <time>2019-08-13T16:14:27Z</time>
      </trkpt>
      <trkpt lat="44.91383" lon="3.49203">
        <ele>1065.7587890625</ele>
        <time>2019-08-13T16:14:31Z</time>
      </trkpt>
      <trkpt lat="44.91377" lon="3.49209">
        <ele>1065.2780761719</ele>
        <time>2019-08-13T16:14:33Z</time>
      </trkpt>
      <trkpt lat="44.91364" lon="3.49223">
        <ele>1064.3166503906</ele>
        <time>2019-08-13T16:14:37Z</time>
      </trkpt>
      <trkpt lat="44.9132" lon="3.4934">
        <ele>1063.8359375</ele>
        <time>2019-08-13T16:14:56Z</time>
      </trkpt>
      <trkpt lat="44.91308" lon="3.49393">
        <ele>1062.8747558594</ele>
        <time>2019-08-13T16:15:05Z</time>
      </trkpt>
      <trkpt lat="44.91316" lon="3.49495">
        <ele>1062.8747558594</ele>
        <time>2019-08-13T16:15:21Z</time>
      </trkpt>
      <trkpt lat="44.9133" lon="3.49604">
        <ele>1063.35546875</ele>
        <time>2019-08-13T16:15:38Z</time>
      </trkpt>
      <trkpt lat="44.91334" lon="3.49636">
        <ele>1065.2780761719</ele>
        <time>2019-08-13T16:15:44Z</time>
      </trkpt>
      <trkpt lat="44.91323" lon="3.49648">
        <ele>1066.7199707031</ele>
        <time>2019-08-13T16:15:51Z</time>
      </trkpt>
      <trkpt lat="44.91296" lon="3.49657">
        <ele>1069.6042480469</ele>
        <time>2019-08-13T16:16:06Z</time>
      </trkpt>
      <trkpt lat="44.91257" lon="3.49685">
        <ele>1072.4880371094</ele>
        <time>2019-08-13T16:16:28Z</time>
      </trkpt>
      <trkpt lat="44.91238" lon="3.49705">
        <ele>1073.9299316406</ele>
        <time>2019-08-13T16:16:41Z</time>
      </trkpt>
      <trkpt lat="44.91207" lon="3.49739">
        <ele>1076.3332519531</ele>
        <time>2019-08-13T16:17:03Z</time>
      </trkpt>
      <trkpt lat="44.91185" lon="3.49762">
        <ele>1078.7365722656</ele>
        <time>2019-08-13T16:17:20Z</time>
      </trkpt>
      <trkpt lat="44.91156" lon="3.49792">
        <ele>1081.6203613281</ele>
        <time>2019-08-13T16:17:41Z</time>
      </trkpt>
      <trkpt lat="44.91128" lon="3.49818">
        <ele>1084.5046386719</ele>
        <time>2019-08-13T16:18:01Z</time>
      </trkpt>
      <trkpt lat="44.911" lon="3.49841">
        <ele>1087.869140625</ele>
        <time>2019-08-13T16:18:25Z</time>
      </trkpt>
      <trkpt lat="44.91083" lon="3.4985">
        <ele>1090.7529296875</ele>
        <time>2019-08-13T16:18:41Z</time>
      </trkpt>
      <trkpt lat="44.91064" lon="3.49859">
        <ele>1093.6369628906</ele>
        <time>2019-08-13T16:18:59Z</time>
      </trkpt>
      <trkpt lat="44.91054" lon="3.49871">
        <ele>1097.0014648438</ele>
        <time>2019-08-13T16:19:16Z</time>
      </trkpt>
      <trkpt lat="44.91054" lon="3.49871">
        <ele>1098.9240722656</ele>
        <time>2019-08-13T16:19:32Z</time>
      </trkpt>
      <trkpt lat="44.91054" lon="3.49871">
        <ele>1100.3664550781</ele>
        <time>2019-08-13T16:19:40Z</time>
      </trkpt>
      <trkpt lat="44.91054" lon="3.49871">
        <ele>1100.8469238281</ele>
        <time>2019-08-13T16:19:51Z</time>
      </trkpt>
      <trkpt lat="44.91042" lon="3.49907">
        <ele>1100.8469238281</ele>
        <time>2019-08-13T16:19:56Z</time>
      </trkpt>
      <trkpt lat="44.91015" lon="3.49948">
        <ele>1102.2888183594</ele>
        <time>2019-08-13T16:20:15Z</time>
      </trkpt>
      <trkpt lat="44.90968" lon="3.50016">
        <ele>1105.1728515625</ele>
        <time>2019-08-13T16:20:41Z</time>
      </trkpt>
      <trkpt lat="44.90932" lon="3.50052">
        <ele>1107.576171875</ele>
        <time>2019-08-13T16:20:59Z</time>
      </trkpt>
      <trkpt lat="44.9092" lon="3.50069">
        <ele>1108.0568847656</ele>
        <time>2019-08-13T16:21:07Z</time>
      </trkpt>
      <trkpt lat="44.90898" lon="3.50106">
        <ele>1110.4599609375</ele>
        <time>2019-08-13T16:21:25Z</time>
      </trkpt>
      <trkpt lat="44.9087" lon="3.50146">
        <ele>1111.4213867188</ele>
        <time>2019-08-13T16:21:45Z</time>
      </trkpt>
      <trkpt lat="44.90835" lon="3.50168">
        <ele>1109.9792480469</ele>
        <time>2019-08-13T16:21:58Z</time>
      </trkpt>
      <trkpt lat="44.90829" lon="3.50172">
        <ele>1108.5373535156</ele>
        <time>2019-08-13T16:22:03Z</time>
      </trkpt>
      <trkpt lat="44.90829" lon="3.50172">
        <ele>1106.1340332031</ele>
        <time>2019-08-13T16:22:08Z</time>
      </trkpt>
      <trkpt lat="44.90774" lon="3.50197">
        <ele>1102.2888183594</ele>
        <time>2019-08-13T16:22:10Z</time>
      </trkpt>
      <trkpt lat="44.90768" lon="3.50195">
        <ele>1102.2888183594</ele>
        <time>2019-08-13T16:22:11Z</time>
      </trkpt>
      <trkpt lat="44.90756" lon="3.50192">
        <ele>1101.3276367188</ele>
        <time>2019-08-13T16:22:13Z</time>
      </trkpt>
      <trkpt lat="44.90732" lon="3.50189">
        <ele>1101.3276367188</ele>
        <time>2019-08-13T16:22:17Z</time>
      </trkpt>
      <trkpt lat="44.90714" lon="3.50189">
        <ele>1101.3276367188</ele>
        <time>2019-08-13T16:22:20Z</time>
      </trkpt>
      <trkpt lat="44.90608" lon="3.50193">
        <ele>1103.2502441406</ele>
        <time>2019-08-13T16:22:39Z</time>
      </trkpt>
      <trkpt lat="44.9053" lon="3.50198">
        <ele>1106.1340332031</ele>
        <time>2019-08-13T16:22:59Z</time>
      </trkpt>
      <trkpt lat="44.90461" lon="3.50189">
        <ele>1108.5373535156</ele>
        <time>2019-08-13T16:23:17Z</time>
      </trkpt>
      <trkpt lat="44.90401" lon="3.50181">
        <ele>1110.4599609375</ele>
        <time>2019-08-13T16:23:33Z</time>
      </trkpt>
      <trkpt lat="44.90356" lon="3.50147">
        <ele>1113.3439941406</ele>
        <time>2019-08-13T16:23:49Z</time>
      </trkpt>
      <trkpt lat="44.90329" lon="3.50122">
        <ele>1116.7087402344</ele>
        <time>2019-08-13T16:24:01Z</time>
      </trkpt>
      <trkpt lat="44.9029" lon="3.50097">
        <ele>1119.1120605469</ele>
        <time>2019-08-13T16:24:20Z</time>
      </trkpt>
      <trkpt lat="44.90219" lon="3.50057">
        <ele>1122.4765625</ele>
        <time>2019-08-13T16:24:47Z</time>
      </trkpt>
      <trkpt lat="44.90146" lon="3.50033">
        <ele>1121.9958496094</ele>
        <time>2019-08-13T16:25:07Z</time>
      </trkpt>
      <trkpt lat="44.9012" lon="3.50031">
        <ele>1121.9958496094</ele>
        <time>2019-08-13T16:25:13Z</time>
      </trkpt>
      <trkpt lat="44.90103" lon="3.50033">
        <ele>1122.4765625</ele>
        <time>2019-08-13T16:25:17Z</time>
      </trkpt>
      <trkpt lat="44.90096" lon="3.50035">
        <ele>1122.4765625</ele>
        <time>2019-08-13T16:25:19Z</time>
      </trkpt>
      <trkpt lat="44.9002" lon="3.5">
        <ele>1121.0346679688</ele>
        <time>2019-08-13T16:25:35Z</time>
      </trkpt>
      <trkpt lat="44.90006" lon="3.49996">
        <ele>1121.5151367188</ele>
        <time>2019-08-13T16:25:38Z</time>
      </trkpt>
      <trkpt lat="44.89978" lon="3.49965">
        <ele>1121.9958496094</ele>
        <time>2019-08-13T16:25:45Z</time>
      </trkpt>
      <trkpt lat="44.89946" lon="3.49903">
        <ele>1124.3991699219</ele>
        <time>2019-08-13T16:26:01Z</time>
      </trkpt>
      <trkpt lat="44.89926" lon="3.49865">
        <ele>1127.763671875</ele>
        <time>2019-08-13T16:26:19Z</time>
      </trkpt>
      <trkpt lat="44.89912" lon="3.49837">
        <ele>1131.1284179688</ele>
        <time>2019-08-13T16:26:35Z</time>
      </trkpt>
      <trkpt lat="44.89889" lon="3.49793">
        <ele>1134.4931640625</ele>
        <time>2019-08-13T16:26:59Z</time>
      </trkpt>
      <trkpt lat="44.89866" lon="3.4976">
        <ele>1137.376953125</ele>
        <time>2019-08-13T16:27:21Z</time>
      </trkpt>
      <trkpt lat="44.89843" lon="3.49734">
        <ele>1138.3383789062</ele>
        <time>2019-08-13T16:27:42Z</time>
      </trkpt>
      <trkpt lat="44.89805" lon="3.49677">
        <ele>1139.7802734375</ele>
        <time>2019-08-13T16:28:03Z</time>
      </trkpt>
      <trkpt lat="44.89772" lon="3.49616">
        <ele>1141.7028808594</ele>
        <time>2019-08-13T16:28:24Z</time>
      </trkpt>
      <trkpt lat="44.89768" lon="3.49609">
        <ele>1142.18359375</ele>
        <time>2019-08-13T16:28:27Z</time>
      </trkpt>
      <trkpt lat="44.89761" lon="3.49596">
        <ele>1142.6643066406</ele>
        <time>2019-08-13T16:28:33Z</time>
      </trkpt>
      <trkpt lat="44.89735" lon="3.4954">
        <ele>1145.5480957031</ele>
        <time>2019-08-13T16:28:58Z</time>
      </trkpt>
      <trkpt lat="44.8971" lon="3.4948">
        <ele>1147.470703125</ele>
        <time>2019-08-13T16:29:19Z</time>
      </trkpt>
      <trkpt lat="44.89694" lon="3.49409">
        <ele>1147.470703125</ele>
        <time>2019-08-13T16:29:37Z</time>
      </trkpt>
      <trkpt lat="44.89662" lon="3.49347">
        <ele>1149.3935546875</ele>
        <time>2019-08-13T16:29:56Z</time>
      </trkpt>
      <trkpt lat="44.89644" lon="3.49315">
        <ele>1151.3161621094</ele>
        <time>2019-08-13T16:30:10Z</time>
      </trkpt>
      <trkpt lat="44.89643" lon="3.49312">
        <ele>1151.3161621094</ele>
        <time>2019-08-13T16:30:12Z</time>
      </trkpt>
      <trkpt lat="44.89639" lon="3.49306">
        <ele>1152.27734375</ele>
        <time>2019-08-13T16:30:15Z</time>
      </trkpt>
      <trkpt lat="44.89631" lon="3.49291">
        <ele>1152.7580566406</ele>
        <time>2019-08-13T16:30:24Z</time>
      </trkpt>
      <trkpt lat="44.89629" lon="3.49288">
        <ele>1153.2387695312</ele>
        <time>2019-08-13T16:30:26Z</time>
      </trkpt>
      <trkpt lat="44.89604" lon="3.49242">
        <ele>1154.6806640625</ele>
        <time>2019-08-13T16:30:45Z</time>
      </trkpt>
      <trkpt lat="44.89583" lon="3.49162">
        <ele>1155.1613769531</ele>
        <time>2019-08-13T16:31:07Z</time>
      </trkpt>
      <trkpt lat="44.89553" lon="3.49081">
        <ele>1156.1225585938</ele>
        <time>2019-08-13T16:31:28Z</time>
      </trkpt>
      <trkpt lat="44.8954" lon="3.49014">
        <ele>1158.5258789062</ele>
        <time>2019-08-13T16:31:49Z</time>
      </trkpt>
      <trkpt lat="44.89535" lon="3.48978">
        <ele>1161.4099121094</ele>
        <time>2019-08-13T16:32:05Z</time>
      </trkpt>
      <trkpt lat="44.8954" lon="3.48941">
        <ele>1164.7746582031</ele>
        <time>2019-08-13T16:32:27Z</time>
      </trkpt>
      <trkpt lat="44.89553" lon="3.48924">
        <ele>1168.1391601562</ele>
        <time>2019-08-13T16:32:46Z</time>
      </trkpt>
      <trkpt lat="44.89554" lon="3.48923">
        <ele>1170.5424804688</ele>
        <time>2019-08-13T16:33:07Z</time>
      </trkpt>
      <trkpt lat="44.89554" lon="3.48923">
        <ele>1173.9069824219</ele>
        <time>2019-08-13T16:33:26Z</time>
      </trkpt>
      <trkpt lat="44.89536" lon="3.48823">
        <ele>1176.791015625</ele>
        <time>2019-08-13T16:33:48Z</time>
      </trkpt>
      <trkpt lat="44.89535" lon="3.48801">
        <ele>1177.7521972656</ele>
        <time>2019-08-13T16:34:01Z</time>
      </trkpt>
      <trkpt lat="44.89534" lon="3.48796">
        <ele>1177.7521972656</ele>
        <time>2019-08-13T16:34:04Z</time>
      </trkpt>
      <trkpt lat="44.89534" lon="3.48791">
        <ele>1178.2329101562</ele>
        <time>2019-08-13T16:34:07Z</time>
      </trkpt>
      <trkpt lat="44.89528" lon="3.48754">
        <ele>1180.6364746094</ele>
        <time>2019-08-13T16:34:28Z</time>
      </trkpt>
      <trkpt lat="44.89514" lon="3.48726">
        <ele>1180.6364746094</ele>
        <time>2019-08-13T16:34:45Z</time>
      </trkpt>
      <trkpt lat="44.89498" lon="3.48704">
        <ele>1182.0783691406</ele>
        <time>2019-08-13T16:35:00Z</time>
      </trkpt>
      <trkpt lat="44.89493" lon="3.48702">
        <ele>1182.5590820312</ele>
        <time>2019-08-13T16:35:04Z</time>
      </trkpt>
      <trkpt lat="44.89488" lon="3.48698">
        <ele>1183.0395507812</ele>
        <time>2019-08-13T16:35:08Z</time>
      </trkpt>
      <trkpt lat="44.8947" lon="3.48675">
        <ele>1184.0009765625</ele>
        <time>2019-08-13T16:35:25Z</time>
      </trkpt>
      <trkpt lat="44.89457" lon="3.48656">
        <ele>1186.884765625</ele>
        <time>2019-08-13T16:35:40Z</time>
      </trkpt>
      <trkpt lat="44.89441" lon="3.48641">
        <ele>1187.8461914062</ele>
        <time>2019-08-13T16:35:55Z</time>
      </trkpt>
      <trkpt lat="44.89436" lon="3.48637">
        <ele>1188.8076171875</ele>
        <time>2019-08-13T16:35:59Z</time>
      </trkpt>
      <trkpt lat="44.89422" lon="3.48616">
        <ele>1190.7299804688</ele>
        <time>2019-08-13T16:36:13Z</time>
      </trkpt>
      <trkpt lat="44.89419" lon="3.48612">
        <ele>1190.7299804688</ele>
        <time>2019-08-13T16:36:16Z</time>
      </trkpt>
      <trkpt lat="44.89404" lon="3.48585">
        <ele>1193.1333007812</ele>
        <time>2019-08-13T16:36:34Z</time>
      </trkpt>
      <trkpt lat="44.89402" lon="3.48579">
        <ele>1193.6140136719</ele>
        <time>2019-08-13T16:36:38Z</time>
      </trkpt>
      <trkpt lat="44.89397" lon="3.48554">
        <ele>1195.5366210938</ele>
        <time>2019-08-13T16:36:54Z</time>
      </trkpt>
      <trkpt lat="44.89391" lon="3.48529">
        <ele>1196.9787597656</ele>
        <time>2019-08-13T16:37:09Z</time>
      </trkpt>
      <trkpt lat="44.89391" lon="3.48521">
        <ele>1198.4206542969</ele>
        <time>2019-08-13T16:37:14Z</time>
      </trkpt>
      <trkpt lat="44.89385" lon="3.48489">
        <ele>1200.3435058594</ele>
        <time>2019-08-13T16:37:33Z</time>
      </trkpt>
      <trkpt lat="44.89385" lon="3.48485">
        <ele>1200.3435058594</ele>
        <time>2019-08-13T16:37:35Z</time>
      </trkpt>
      <trkpt lat="44.89383" lon="3.48477">
        <ele>1200.8239746094</ele>
        <time>2019-08-13T16:37:39Z</time>
      </trkpt>
      <trkpt lat="44.89365" lon="3.48463">
        <ele>1201.7854003906</ele>
        <time>2019-08-13T16:37:53Z</time>
      </trkpt>
      <trkpt lat="44.89353" lon="3.48446">
        <ele>1202.7465820312</ele>
        <time>2019-08-13T16:38:04Z</time>
      </trkpt>
      <trkpt lat="44.89337" lon="3.48421">
        <ele>1204.1887207031</ele>
        <time>2019-08-13T16:38:21Z</time>
      </trkpt>
      <trkpt lat="44.89311" lon="3.48398">
        <ele>1204.6691894531</ele>
        <time>2019-08-13T16:38:38Z</time>
      </trkpt>
      <trkpt lat="44.89285" lon="3.48381">
        <ele>1204.6691894531</ele>
        <time>2019-08-13T16:38:52Z</time>
      </trkpt>
      <trkpt lat="44.89282" lon="3.48379">
        <ele>1205.1499023438</ele>
        <time>2019-08-13T16:39:07Z</time>
      </trkpt>
      <trkpt lat="44.89277" lon="3.48382">
        <ele>1204.6691894531</ele>
        <time>2019-08-13T16:39:26Z</time>
      </trkpt>
      <trkpt lat="44.89273" lon="3.48392">
        <ele>1205.1499023438</ele>
        <time>2019-08-13T16:39:31Z</time>
      </trkpt>
      <trkpt lat="44.8926" lon="3.4842">
        <ele>1205.1499023438</ele>
        <time>2019-08-13T16:39:41Z</time>
      </trkpt>
      <trkpt lat="44.89239" lon="3.48469">
        <ele>1204.6691894531</ele>
        <time>2019-08-13T16:39:54Z</time>
      </trkpt>
      <trkpt lat="44.89222" lon="3.48526">
        <ele>1203.2272949219</ele>
        <time>2019-08-13T16:40:07Z</time>
      </trkpt>
      <trkpt lat="44.89213" lon="3.4855">
        <ele>1202.2658691406</ele>
        <time>2019-08-13T16:40:11Z</time>
      </trkpt>
      <trkpt lat="44.89179" lon="3.48611">
        <ele>1199.3820800781</ele>
        <time>2019-08-13T16:40:22Z</time>
      </trkpt>
      <trkpt lat="44.89146" lon="3.48655">
        <ele>1198.4206542969</ele>
        <time>2019-08-13T16:40:31Z</time>
      </trkpt>
      <trkpt lat="44.89141" lon="3.48665">
        <ele>1198.9013671875</ele>
        <time>2019-08-13T16:40:33Z</time>
      </trkpt>
      <trkpt lat="44.89134" lon="3.48689">
        <ele>1197.4594726562</ele>
        <time>2019-08-13T16:40:37Z</time>
      </trkpt>
      <trkpt lat="44.89133" lon="3.48714">
        <ele>1195.5366210938</ele>
        <time>2019-08-13T16:40:40Z</time>
      </trkpt>
      <trkpt lat="44.89133" lon="3.48731">
        <ele>1194.5751953125</ele>
        <time>2019-08-13T16:40:42Z</time>
      </trkpt>
      <trkpt lat="44.8913" lon="3.48772">
        <ele>1192.1721191406</ele>
        <time>2019-08-13T16:40:47Z</time>
      </trkpt>
      <trkpt lat="44.89131" lon="3.48825">
        <ele>1188.3269042969</ele>
        <time>2019-08-13T16:40:53Z</time>
      </trkpt>
      <trkpt lat="44.89133" lon="3.48897">
        <ele>1187.3654785156</ele>
        <time>2019-08-13T16:41:03Z</time>
      </trkpt>
      <trkpt lat="44.89113" lon="3.48897">
        <ele>1188.3269042969</ele>
        <time>2019-08-13T16:41:13Z</time>
      </trkpt>
      <trkpt lat="44.89105" lon="3.48892">
        <ele>1189.7687988281</ele>
        <time>2019-08-13T16:41:17Z</time>
      </trkpt>
      <trkpt lat="44.89084" lon="3.48843">
        <ele>1192.6528320312</ele>
        <time>2019-08-13T16:41:37Z</time>
      </trkpt>
      <trkpt lat="44.89082" lon="3.48841">
        <ele>1192.6528320312</ele>
        <time>2019-08-13T16:41:38Z</time>
      </trkpt>
      <trkpt lat="44.89062" lon="3.4881">
        <ele>1194.5751953125</ele>
        <time>2019-08-13T16:41:56Z</time>
      </trkpt>
      <trkpt lat="44.89062" lon="3.48808">
        <ele>1194.5751953125</ele>
        <time>2019-08-13T16:41:57Z</time>
      </trkpt>
      <trkpt lat="44.89056" lon="3.48802">
        <ele>1195.5366210938</ele>
        <time>2019-08-13T16:42:01Z</time>
      </trkpt>
      <trkpt lat="44.89034" lon="3.48773">
        <ele>1197.9401855469</ele>
        <time>2019-08-13T16:42:18Z</time>
      </trkpt>
      <trkpt lat="44.89015" lon="3.48739">
        <ele>1199.8627929688</ele>
        <time>2019-08-13T16:42:35Z</time>
      </trkpt>
      <trkpt lat="44.88992" lon="3.48703">
        <ele>1202.7465820312</ele>
        <time>2019-08-13T16:42:55Z</time>
      </trkpt>
      <trkpt lat="44.88971" lon="3.48675">
        <ele>1206.1110839844</ele>
        <time>2019-08-13T16:43:14Z</time>
      </trkpt>
      <trkpt lat="44.88955" lon="3.48652">
        <ele>1207.0725097656</ele>
        <time>2019-08-13T16:43:27Z</time>
      </trkpt>
      <trkpt lat="44.88951" lon="3.4865">
        <ele>1207.5532226562</ele>
        <time>2019-08-13T16:43:29Z</time>
      </trkpt>
      <trkpt lat="44.88932" lon="3.48619">
        <ele>1209.9562988281</ele>
        <time>2019-08-13T16:43:48Z</time>
      </trkpt>
      <trkpt lat="44.88928" lon="3.48614">
        <ele>1210.4370117188</ele>
        <time>2019-08-13T16:43:52Z</time>
      </trkpt>
      <trkpt lat="44.88926" lon="3.48607">
        <ele>1210.9177246094</ele>
        <time>2019-08-13T16:44:05Z</time>
      </trkpt>
      <trkpt lat="44.88924" lon="3.48605">
        <ele>1210.9177246094</ele>
        <time>2019-08-13T16:44:07Z</time>
      </trkpt>
      <trkpt lat="44.88919" lon="3.48594">
        <ele>1211.3984375</ele>
        <time>2019-08-13T16:44:25Z</time>
      </trkpt>
      <trkpt lat="44.88917" lon="3.48592">
        <ele>1211.3984375</ele>
        <time>2019-08-13T16:44:27Z</time>
      </trkpt>
      <trkpt lat="44.88897" lon="3.48571">
        <ele>1212.8405761719</ele>
        <time>2019-08-13T16:44:42Z</time>
      </trkpt>
      <trkpt lat="44.88895" lon="3.48565">
        <ele>1212.3598632812</ele>
        <time>2019-08-13T16:44:50Z</time>
      </trkpt>
      <trkpt lat="44.88895" lon="3.4856">
        <ele>1213.3212890625</ele>
        <time>2019-08-13T16:44:54Z</time>
      </trkpt>
      <trkpt lat="44.88887" lon="3.48543">
        <ele>1214.2824707031</ele>
        <time>2019-08-13T16:45:06Z</time>
      </trkpt>
      <trkpt lat="44.88883" lon="3.48515">
        <ele>1215.724609375</ele>
        <time>2019-08-13T16:45:19Z</time>
      </trkpt>
      <trkpt lat="44.88881" lon="3.48493">
        <ele>1215.724609375</ele>
        <time>2019-08-13T16:45:28Z</time>
      </trkpt>
      <trkpt lat="44.88862" lon="3.4845">
        <ele>1217.6469726562</ele>
        <time>2019-08-13T16:45:47Z</time>
      </trkpt>
      <trkpt lat="44.88844" lon="3.48439">
        <ele>1218.1276855469</ele>
        <time>2019-08-13T16:46:00Z</time>
      </trkpt>
      <trkpt lat="44.88837" lon="3.4844">
        <ele>1217.6469726562</ele>
        <time>2019-08-13T16:46:04Z</time>
      </trkpt>
      <trkpt lat="44.88805" lon="3.48438">
        <ele>1218.6083984375</ele>
        <time>2019-08-13T16:46:17Z</time>
      </trkpt>
      <trkpt lat="44.88777" lon="3.48443">
        <ele>1220.5310058594</ele>
        <time>2019-08-13T16:46:29Z</time>
      </trkpt>
      <trkpt lat="44.88748" lon="3.48448">
        <ele>1221.01171875</ele>
        <time>2019-08-13T16:46:41Z</time>
      </trkpt>
      <trkpt lat="44.88694" lon="3.48449">
        <ele>1222.9343261719</ele>
        <time>2019-08-13T16:47:00Z</time>
      </trkpt>
      <trkpt lat="44.88689" lon="3.48448">
        <ele>1223.8955078125</ele>
        <time>2019-08-13T16:47:02Z</time>
      </trkpt>
      <trkpt lat="44.88665" lon="3.48445">
        <ele>1225.8181152344</ele>
        <time>2019-08-13T16:47:13Z</time>
      </trkpt>
      <trkpt lat="44.88629" lon="3.48437">
        <ele>1228.7023925781</ele>
        <time>2019-08-13T16:47:30Z</time>
      </trkpt>
      <trkpt lat="44.88604" lon="3.48431">
        <ele>1229.6635742188</ele>
        <time>2019-08-13T16:47:42Z</time>
      </trkpt>
      <trkpt lat="44.88566" lon="3.48413">
        <ele>1231.1057128906</ele>
        <time>2019-08-13T16:47:58Z</time>
      </trkpt>
      <trkpt lat="44.88527" lon="3.48382">
        <ele>1232.5476074219</ele>
        <time>2019-08-13T16:48:15Z</time>
      </trkpt>
      <trkpt lat="44.88489" lon="3.48363">
        <ele>1233.0280761719</ele>
        <time>2019-08-13T16:48:28Z</time>
      </trkpt>
      <trkpt lat="44.88441" lon="3.4835">
        <ele>1233.0280761719</ele>
        <time>2019-08-13T16:48:41Z</time>
      </trkpt>
      <trkpt lat="44.8837" lon="3.48333">
        <ele>1231.1057128906</ele>
        <time>2019-08-13T16:48:58Z</time>
      </trkpt>
      <trkpt lat="44.88336" lon="3.48309">
        <ele>1228.2216796875</ele>
        <time>2019-08-13T16:49:05Z</time>
      </trkpt>
      <trkpt lat="44.8832" lon="3.48302">
        <ele>1228.2216796875</ele>
        <time>2019-08-13T16:49:08Z</time>
      </trkpt>
      <trkpt lat="44.88301" lon="3.48288">
        <ele>1228.2216796875</ele>
        <time>2019-08-13T16:49:12Z</time>
      </trkpt>
      <trkpt lat="44.88277" lon="3.48259">
        <ele>1228.2216796875</ele>
        <time>2019-08-13T16:49:18Z</time>
      </trkpt>
      <trkpt lat="44.88261" lon="3.48243">
        <ele>1228.7023925781</ele>
        <time>2019-08-13T16:49:22Z</time>
      </trkpt>
      <trkpt lat="44.88224" lon="3.4822">
        <ele>1231.5861816406</ele>
        <time>2019-08-13T16:49:34Z</time>
      </trkpt>
      <trkpt lat="44.88195" lon="3.48147">
        <ele>1231.1057128906</ele>
        <time>2019-08-13T16:49:53Z</time>
      </trkpt>
      <trkpt lat="44.88139" lon="3.48061">
        <ele>1229.6635742188</ele>
        <time>2019-08-13T16:50:13Z</time>
      </trkpt>
      <trkpt lat="44.88087" lon="3.47993">
        <ele>1230.1442871094</ele>
        <time>2019-08-13T16:50:31Z</time>
      </trkpt>
      <trkpt lat="44.88037" lon="3.47934">
        <ele>1231.5861816406</ele>
        <time>2019-08-13T16:50:50Z</time>
      </trkpt>
      <trkpt lat="44.8797" lon="3.47877">
        <ele>1232.0668945312</ele>
        <time>2019-08-13T16:51:13Z</time>
      </trkpt>
      <trkpt lat="44.87906" lon="3.47826">
        <ele>1229.6635742188</ele>
        <time>2019-08-13T16:51:31Z</time>
      </trkpt>
      <trkpt lat="44.87841" lon="3.47731">
        <ele>1228.7023925781</ele>
        <time>2019-08-13T16:51:51Z</time>
      </trkpt>
      <trkpt lat="44.87838" lon="3.47726">
        <ele>1228.7023925781</ele>
        <time>2019-08-13T16:51:52Z</time>
      </trkpt>
      <trkpt lat="44.87806" lon="3.47649">
        <ele>1232.0668945312</ele>
        <time>2019-08-13T16:52:11Z</time>
      </trkpt>
      <trkpt lat="44.87772" lon="3.47608">
        <ele>1234.4702148438</ele>
        <time>2019-08-13T16:52:29Z</time>
      </trkpt>
      <trkpt lat="44.87738" lon="3.4757">
        <ele>1237.3540039062</ele>
        <time>2019-08-13T16:52:51Z</time>
      </trkpt>
      <trkpt lat="44.8772" lon="3.47518">
        <ele>1240.7185058594</ele>
        <time>2019-08-13T16:53:11Z</time>
      </trkpt>
      <trkpt lat="44.87724" lon="3.47463">
        <ele>1242.6413574219</ele>
        <time>2019-08-13T16:53:32Z</time>
      </trkpt>
      <trkpt lat="44.87725" lon="3.47398">
        <ele>1246.0061035156</ele>
        <time>2019-08-13T16:53:57Z</time>
      </trkpt>
      <trkpt lat="44.87718" lon="3.47339">
        <ele>1247.9287109375</ele>
        <time>2019-08-13T16:54:18Z</time>
      </trkpt>
      <trkpt lat="44.87699" lon="3.47309">
        <ele>1249.8513183594</ele>
        <time>2019-08-13T16:54:36Z</time>
      </trkpt>
      <trkpt lat="44.87698" lon="3.47307">
        <ele>1249.8513183594</ele>
        <time>2019-08-13T16:54:37Z</time>
      </trkpt>
      <trkpt lat="44.87676" lon="3.47281">
        <ele>1252.2543945312</ele>
        <time>2019-08-13T16:54:54Z</time>
      </trkpt>
      <trkpt lat="44.87648" lon="3.47244">
        <ele>1253.2158203125</ele>
        <time>2019-08-13T16:55:12Z</time>
      </trkpt>
      <trkpt lat="44.87628" lon="3.4719">
        <ele>1251.7739257812</ele>
        <time>2019-08-13T16:55:25Z</time>
      </trkpt>
      <trkpt lat="44.87614" lon="3.47141">
        <ele>1249.8513183594</ele>
        <time>2019-08-13T16:55:33Z</time>
      </trkpt>
      <trkpt lat="44.87607" lon="3.47097">
        <ele>1247.4479980469</ele>
        <time>2019-08-13T16:55:39Z</time>
      </trkpt>
      <trkpt lat="44.87607" lon="3.47063">
        <ele>1246.0061035156</ele>
        <time>2019-08-13T16:55:43Z</time>
      </trkpt>
      <trkpt lat="44.87607" lon="3.47025">
        <ele>1244.5639648438</ele>
        <time>2019-08-13T16:55:47Z</time>
      </trkpt>
      <trkpt lat="44.87606" lon="3.46985">
        <ele>1241.19921875</ele>
        <time>2019-08-13T16:55:51Z</time>
      </trkpt>
      <trkpt lat="44.87605" lon="3.46976">
        <ele>1241.19921875</ele>
        <time>2019-08-13T16:55:52Z</time>
      </trkpt>
      <trkpt lat="44.87585" lon="3.46877">
        <ele>1240.2380371094</ele>
        <time>2019-08-13T16:56:03Z</time>
      </trkpt>
      <trkpt lat="44.87568" lon="3.46797">
        <ele>1242.1606445312</ele>
        <time>2019-08-13T16:56:19Z</time>
      </trkpt>
      <trkpt lat="44.8756" lon="3.46757">
        <ele>1241.19921875</ele>
        <time>2019-08-13T16:56:31Z</time>
      </trkpt>
      <trkpt lat="44.87555" lon="3.46731">
        <ele>1242.1606445312</ele>
        <time>2019-08-13T16:56:42Z</time>
      </trkpt>
      <trkpt lat="44.87553" lon="3.46723">
        <ele>1242.6413574219</ele>
        <time>2019-08-13T16:56:46Z</time>
      </trkpt>
      <trkpt lat="44.8755" lon="3.46718">
        <ele>1243.1218261719</ele>
        <time>2019-08-13T16:56:50Z</time>
      </trkpt>
      <trkpt lat="44.87543" lon="3.46711">
        <ele>1244.0834960938</ele>
        <time>2019-08-13T16:56:56Z</time>
      </trkpt>
      <trkpt lat="44.87537" lon="3.46701">
        <ele>1246.0061035156</ele>
        <time>2019-08-13T16:57:03Z</time>
      </trkpt>
      <trkpt lat="44.87541" lon="3.46677">
        <ele>1249.3706054688</ele>
        <time>2019-08-13T16:57:20Z</time>
      </trkpt>
      <trkpt lat="44.8756" lon="3.46665">
        <ele>1250.8125</ele>
        <time>2019-08-13T16:57:36Z</time>
      </trkpt>
      <trkpt lat="44.87562" lon="3.46664">
        <ele>1250.8125</ele>
        <time>2019-08-13T16:57:38Z</time>
      </trkpt>
      <trkpt lat="44.87586" lon="3.46648">
        <ele>1253.6965332031</ele>
        <time>2019-08-13T16:57:56Z</time>
      </trkpt>
      <trkpt lat="44.87607" lon="3.46631">
        <ele>1257.0610351562</ele>
        <time>2019-08-13T16:58:12Z</time>
      </trkpt>
      <trkpt lat="44.87628" lon="3.46606">
        <ele>1260.42578125</ele>
        <time>2019-08-13T16:58:33Z</time>
      </trkpt>
      <trkpt lat="44.87628" lon="3.466">
        <ele>1260.9064941406</ele>
        <time>2019-08-13T16:58:36Z</time>
      </trkpt>
      <trkpt lat="44.87622" lon="3.46586">
        <ele>1262.8291015625</ele>
        <time>2019-08-13T16:58:46Z</time>
      </trkpt>
      <trkpt lat="44.87619" lon="3.46583">
        <ele>1263.3098144531</ele>
        <time>2019-08-13T16:58:50Z</time>
      </trkpt>
      <trkpt lat="44.87618" lon="3.46578">
        <ele>1263.7902832031</ele>
        <time>2019-08-13T16:58:54Z</time>
      </trkpt>
      <trkpt lat="44.87612" lon="3.46569">
        <ele>1265.232421875</ele>
        <time>2019-08-13T16:59:02Z</time>
      </trkpt>
      <trkpt lat="44.87595" lon="3.46548">
        <ele>1268.5969238281</ele>
        <time>2019-08-13T16:59:17Z</time>
      </trkpt>
      <trkpt lat="44.87571" lon="3.46542">
        <ele>1271.4807128906</ele>
        <time>2019-08-13T16:59:33Z</time>
      </trkpt>
      <trkpt lat="44.8756" lon="3.46539">
        <ele>1271.9614257812</ele>
        <time>2019-08-13T16:59:39Z</time>
      </trkpt>
      <trkpt lat="44.87551" lon="3.46533">
        <ele>1273.4035644531</ele>
        <time>2019-08-13T16:59:46Z</time>
      </trkpt>
      <trkpt lat="44.87548" lon="3.46533">
        <ele>1273.8840332031</ele>
        <time>2019-08-13T16:59:48Z</time>
      </trkpt>
      <trkpt lat="44.87536" lon="3.46509">
        <ele>1276.7683105469</ele>
        <time>2019-08-13T17:00:03Z</time>
      </trkpt>
      <trkpt lat="44.87538" lon="3.46501">
        <ele>1277.7294921875</ele>
        <time>2019-08-13T17:00:08Z</time>
      </trkpt>
      <trkpt lat="44.87541" lon="3.46497">
        <ele>1278.2102050781</ele>
        <time>2019-08-13T17:00:12Z</time>
      </trkpt>
      <trkpt lat="44.87547" lon="3.46494">
        <ele>1278.6909179688</ele>
        <time>2019-08-13T17:00:16Z</time>
      </trkpt>
      <trkpt lat="44.87561" lon="3.46477">
        <ele>1282.0554199219</ele>
        <time>2019-08-13T17:00:31Z</time>
      </trkpt>
      <trkpt lat="44.87572" lon="3.46465">
        <ele>1283.0166015625</ele>
        <time>2019-08-13T17:00:41Z</time>
      </trkpt>
      <trkpt lat="44.8759" lon="3.46445">
        <ele>1285.9006347656</ele>
        <time>2019-08-13T17:00:57Z</time>
      </trkpt>
      <trkpt lat="44.87602" lon="3.4642">
        <ele>1288.3039550781</ele>
        <time>2019-08-13T17:01:12Z</time>
      </trkpt>
      <trkpt lat="44.87603" lon="3.46417">
        <ele>1288.7846679688</ele>
        <time>2019-08-13T17:01:14Z</time>
      </trkpt>
      <trkpt lat="44.87606" lon="3.464">
        <ele>1290.2265625</ele>
        <time>2019-08-13T17:01:22Z</time>
      </trkpt>
      <trkpt lat="44.8761" lon="3.46389">
        <ele>1291.1877441406</ele>
        <time>2019-08-13T17:01:28Z</time>
      </trkpt>
      <trkpt lat="44.87616" lon="3.46349">
        <ele>1294.0720214844</ele>
        <time>2019-08-13T17:01:50Z</time>
      </trkpt>
      <trkpt lat="44.8762" lon="3.46319">
        <ele>1296.9558105469</ele>
        <time>2019-08-13T17:02:06Z</time>
      </trkpt>
      <trkpt lat="44.8762" lon="3.46314">
        <ele>1296.4753417969</ele>
        <time>2019-08-13T17:02:09Z</time>
      </trkpt>
      <trkpt lat="44.87622" lon="3.46303">
        <ele>1297.9172363281</ele>
        <time>2019-08-13T17:02:14Z</time>
      </trkpt>
      <trkpt lat="44.87622" lon="3.46299">
        <ele>1297.9172363281</ele>
        <time>2019-08-13T17:02:16Z</time>
      </trkpt>
      <trkpt lat="44.87624" lon="3.46282">
        <ele>1299.83984375</ele>
        <time>2019-08-13T17:02:26Z</time>
      </trkpt>
      <trkpt lat="44.87625" lon="3.46276">
        <ele>1300.8010253906</ele>
        <time>2019-08-13T17:02:30Z</time>
      </trkpt>
      <trkpt lat="44.87626" lon="3.46269">
        <ele>1301.2817382812</ele>
        <time>2019-08-13T17:02:33Z</time>
      </trkpt>
      <trkpt lat="44.87627" lon="3.46263">
        <ele>1302.2429199219</ele>
        <time>2019-08-13T17:02:37Z</time>
      </trkpt>
      <trkpt lat="44.87631" lon="3.46249">
        <ele>1304.1657714844</ele>
        <time>2019-08-13T17:02:48Z</time>
      </trkpt>
      <trkpt lat="44.87635" lon="3.46232">
        <ele>1306.5688476562</ele>
        <time>2019-08-13T17:03:02Z</time>
      </trkpt>
      <trkpt lat="44.87638" lon="3.4621">
        <ele>1308.9724121094</ele>
        <time>2019-08-13T17:03:19Z</time>
      </trkpt>
      <trkpt lat="44.87637" lon="3.46202">
        <ele>1310.4143066406</ele>
        <time>2019-08-13T17:03:24Z</time>
      </trkpt>
      <trkpt lat="44.87636" lon="3.46179">
        <ele>1313.2983398438</ele>
        <time>2019-08-13T17:03:40Z</time>
      </trkpt>
      <trkpt lat="44.87635" lon="3.46172">
        <ele>1314.2595214844</ele>
        <time>2019-08-13T17:03:45Z</time>
      </trkpt>
      <trkpt lat="44.87634" lon="3.46166">
        <ele>1315.2209472656</ele>
        <time>2019-08-13T17:03:49Z</time>
      </trkpt>
      <trkpt lat="44.87633" lon="3.46136">
        <ele>1318.1047363281</ele>
        <time>2019-08-13T17:04:09Z</time>
      </trkpt>
      <trkpt lat="44.87633" lon="3.46126">
        <ele>1319.546875</ele>
        <time>2019-08-13T17:04:16Z</time>
      </trkpt>
      <trkpt lat="44.87632" lon="3.4612">
        <ele>1320.5080566406</ele>
        <time>2019-08-13T17:04:20Z</time>
      </trkpt>
      <trkpt lat="44.87635" lon="3.46095">
        <ele>1322.9113769531</ele>
        <time>2019-08-13T17:04:39Z</time>
      </trkpt>
      <trkpt lat="44.87637" lon="3.4608">
        <ele>1325.3146972656</ele>
        <time>2019-08-13T17:04:50Z</time>
      </trkpt>
      <trkpt lat="44.87641" lon="3.46058">
        <ele>1326.7568359375</ele>
        <time>2019-08-13T17:05:07Z</time>
      </trkpt>
      <trkpt lat="44.87644" lon="3.46053">
        <ele>1327.7180175781</ele>
        <time>2019-08-13T17:05:11Z</time>
      </trkpt>
      <trkpt lat="44.87647" lon="3.4603">
        <ele>1330.1213378906</ele>
        <time>2019-08-13T17:05:27Z</time>
      </trkpt>
      <trkpt lat="44.87651" lon="3.46012">
        <ele>1332.0439453125</ele>
        <time>2019-08-13T17:05:41Z</time>
      </trkpt>
      <trkpt lat="44.87653" lon="3.45987">
        <ele>1334.9279785156</ele>
        <time>2019-08-13T17:06:01Z</time>
      </trkpt>
      <trkpt lat="44.87652" lon="3.45981">
        <ele>1335.8891601562</ele>
        <time>2019-08-13T17:06:06Z</time>
      </trkpt>
      <trkpt lat="44.87653" lon="3.4597">
        <ele>1337.3310546875</ele>
        <time>2019-08-13T17:06:15Z</time>
      </trkpt>
      <trkpt lat="44.87653" lon="3.45961">
        <ele>1337.8117675781</ele>
        <time>2019-08-13T17:06:21Z</time>
      </trkpt>
      <trkpt lat="44.87655" lon="3.45956">
        <ele>1338.7731933594</ele>
        <time>2019-08-13T17:06:25Z</time>
      </trkpt>
      <trkpt lat="44.87651" lon="3.45936">
        <ele>1341.1765136719</ele>
        <time>2019-08-13T17:06:40Z</time>
      </trkpt>
      <trkpt lat="44.87652" lon="3.45907">
        <ele>1344.541015625</ele>
        <time>2019-08-13T17:06:59Z</time>
      </trkpt>
      <trkpt lat="44.87651" lon="3.45888">
        <ele>1345.9831542969</ele>
        <time>2019-08-13T17:07:10Z</time>
      </trkpt>
      <trkpt lat="44.87651" lon="3.45873">
        <ele>1347.9057617188</ele>
        <time>2019-08-13T17:07:19Z</time>
      </trkpt>
      <trkpt lat="44.87651" lon="3.45863">
        <ele>1348.8669433594</ele>
        <time>2019-08-13T17:07:26Z</time>
      </trkpt>
      <trkpt lat="44.87649" lon="3.45855">
        <ele>1349.34765625</ele>
        <time>2019-08-13T17:07:31Z</time>
      </trkpt>
      <trkpt lat="44.87648" lon="3.45847">
        <ele>1349.8283691406</ele>
        <time>2019-08-13T17:07:36Z</time>
      </trkpt>
      <trkpt lat="44.87646" lon="3.45827">
        <ele>1351.7509765625</ele>
        <time>2019-08-13T17:07:49Z</time>
      </trkpt>
      <trkpt lat="44.87647" lon="3.45813">
        <ele>1353.1928710938</ele>
        <time>2019-08-13T17:07:57Z</time>
      </trkpt>
      <trkpt lat="44.87646" lon="3.45806">
        <ele>1353.1928710938</ele>
        <time>2019-08-13T17:08:01Z</time>
      </trkpt>
      <trkpt lat="44.87646" lon="3.45803">
        <ele>1353.6735839844</ele>
        <time>2019-08-13T17:08:03Z</time>
      </trkpt>
      <trkpt lat="44.87644" lon="3.45799">
        <ele>1354.154296875</ele>
        <time>2019-08-13T17:08:06Z</time>
      </trkpt>
      <trkpt lat="44.87643" lon="3.45784">
        <ele>1356.0769042969</ele>
        <time>2019-08-13T17:08:15Z</time>
      </trkpt>
      <trkpt lat="44.87639" lon="3.45744">
        <ele>1357.9997558594</ele>
        <time>2019-08-13T17:08:36Z</time>
      </trkpt>
      <trkpt lat="44.87636" lon="3.45711">
        <ele>1359.9221191406</ele>
        <time>2019-08-13T17:08:57Z</time>
      </trkpt>
      <trkpt lat="44.87633" lon="3.45681">
        <ele>1359.9221191406</ele>
        <time>2019-08-13T17:10:03Z</time>
      </trkpt>
      <trkpt lat="44.87636" lon="3.45638">
        <ele>1361.8449707031</ele>
        <time>2019-08-13T17:10:19Z</time>
      </trkpt>
      <trkpt lat="44.87645" lon="3.45591">
        <ele>1364.7287597656</ele>
        <time>2019-08-13T17:10:42Z</time>
      </trkpt>
      <trkpt lat="44.87645" lon="3.45588">
        <ele>1365.2094726562</ele>
        <time>2019-08-13T17:11:01Z</time>
      </trkpt>
      <trkpt lat="44.87645" lon="3.45588">
        <ele>1365.2094726562</ele>
        <time>2019-08-13T17:11:29Z</time>
      </trkpt>
      <trkpt lat="44.87655" lon="3.45561">
        <ele>1366.6513671875</ele>
        <time>2019-08-13T17:11:45Z</time>
      </trkpt>
      <trkpt lat="44.87673" lon="3.45516">
        <ele>1370.4965820312</ele>
        <time>2019-08-13T17:12:01Z</time>
      </trkpt>
      <trkpt lat="44.87686" lon="3.4549">
        <ele>1373.861328125</ele>
        <time>2019-08-13T17:12:15Z</time>
      </trkpt>
      <trkpt lat="44.87701" lon="3.45454">
        <ele>1376.7453613281</ele>
        <time>2019-08-13T17:12:34Z</time>
      </trkpt>
      <trkpt lat="44.87711" lon="3.45426">
        <ele>1380.1098632812</ele>
        <time>2019-08-13T17:12:50Z</time>
      </trkpt>
      <trkpt lat="44.87719" lon="3.45403">
        <ele>1381.5517578125</ele>
        <time>2019-08-13T17:13:05Z</time>
      </trkpt>
      <trkpt lat="44.87736" lon="3.45361">
        <ele>1384.9165039062</ele>
        <time>2019-08-13T17:13:27Z</time>
      </trkpt>
      <trkpt lat="44.8775" lon="3.45323">
        <ele>1386.8388671875</ele>
        <time>2019-08-13T17:13:46Z</time>
      </trkpt>
      <trkpt lat="44.87767" lon="3.45276">
        <ele>1388.28125</ele>
        <time>2019-08-13T17:14:08Z</time>
      </trkpt>
      <trkpt lat="44.87783" lon="3.45231">
        <ele>1389.7231445312</ele>
        <time>2019-08-13T17:14:27Z</time>
      </trkpt>
      <trkpt lat="44.87801" lon="3.45182">
        <ele>1391.1650390625</ele>
        <time>2019-08-13T17:14:46Z</time>
      </trkpt>
      <trkpt lat="44.87823" lon="3.45127">
        <ele>1393.568359375</ele>
        <time>2019-08-13T17:15:09Z</time>
      </trkpt>
      <trkpt lat="44.87842" lon="3.45085">
        <ele>1395.4909667969</ele>
        <time>2019-08-13T17:15:27Z</time>
      </trkpt>
      <trkpt lat="44.87873" lon="3.45014">
        <ele>1398.3747558594</ele>
        <time>2019-08-13T17:15:55Z</time>
      </trkpt>
      <trkpt lat="44.87898" lon="3.44959">
        <ele>1399.3361816406</ele>
        <time>2019-08-13T17:16:16Z</time>
      </trkpt>
      <trkpt lat="44.87931" lon="3.44898">
        <ele>1399.8168945312</ele>
        <time>2019-08-13T17:16:39Z</time>
      </trkpt>
      <trkpt lat="44.87952" lon="3.44844">
        <ele>1400.2976074219</ele>
        <time>2019-08-13T17:16:57Z</time>
      </trkpt>
      <trkpt lat="44.87969" lon="3.4478">
        <ele>1400.2976074219</ele>
        <time>2019-08-13T17:17:15Z</time>
      </trkpt>
      <trkpt lat="44.87984" lon="3.44728">
        <ele>1400.2976074219</ele>
        <time>2019-08-13T17:17:29Z</time>
      </trkpt>
      <trkpt lat="44.87993" lon="3.44677">
        <ele>1398.85546875</ele>
        <time>2019-08-13T17:17:42Z</time>
      </trkpt>
      <trkpt lat="44.87996" lon="3.4467">
        <ele>1398.85546875</ele>
        <time>2019-08-13T17:17:44Z</time>
      </trkpt>
      <trkpt lat="44.88" lon="3.44611">
        <ele>1398.3747558594</ele>
        <time>2019-08-13T17:17:57Z</time>
      </trkpt>
      <trkpt lat="44.88002" lon="3.44603">
        <ele>1398.85546875</ele>
        <time>2019-08-13T17:18:08Z</time>
      </trkpt>
      <trkpt lat="44.88002" lon="3.44604">
        <ele>1398.85546875</ele>
        <time>2019-08-13T17:18:42Z</time>
      </trkpt>
      <trkpt lat="44.88002" lon="3.44604">
        <ele>1398.85546875</ele>
        <time>2019-08-13T17:18:47Z</time>
      </trkpt>
      <trkpt lat="44.8803" lon="3.44642">
        <ele>1396.4523925781</ele>
        <time>2019-08-13T17:19:03Z</time>
      </trkpt>
      <trkpt lat="44.88045" lon="3.44656">
        <ele>1395.0102539062</ele>
        <time>2019-08-13T17:19:09Z</time>
      </trkpt>
      <trkpt lat="44.88084" lon="3.44677">
        <ele>1394.0490722656</ele>
        <time>2019-08-13T17:19:22Z</time>
      </trkpt>
      <trkpt lat="44.88124" lon="3.44691">
        <ele>1393.568359375</ele>
        <time>2019-08-13T17:19:35Z</time>
      </trkpt>
      <trkpt lat="44.88127" lon="3.44691">
        <ele>1393.568359375</ele>
        <time>2019-08-13T17:19:36Z</time>
      </trkpt>
      <trkpt lat="44.88152" lon="3.44684">
        <ele>1391.6457519531</ele>
        <time>2019-08-13T17:19:46Z</time>
      </trkpt>
      <trkpt lat="44.88178" lon="3.44662">
        <ele>1389.7231445312</ele>
        <time>2019-08-13T17:19:58Z</time>
      </trkpt>
      <trkpt lat="44.88207" lon="3.44638">
        <ele>1387.3195800781</ele>
        <time>2019-08-13T17:20:08Z</time>
      </trkpt>
      <trkpt lat="44.88226" lon="3.44621">
        <ele>1386.8388671875</ele>
        <time>2019-08-13T17:20:14Z</time>
      </trkpt>
      <trkpt lat="44.88252" lon="3.44597">
        <ele>1383.955078125</ele>
        <time>2019-08-13T17:20:24Z</time>
      </trkpt>
      <trkpt lat="44.88272" lon="3.44577">
        <ele>1382.5131835938</ele>
        <time>2019-08-13T17:20:33Z</time>
      </trkpt>
      <trkpt lat="44.88303" lon="3.44545">
        <ele>1379.6291503906</ele>
        <time>2019-08-13T17:20:43Z</time>
      </trkpt>
      <trkpt lat="44.88314" lon="3.44535">
        <ele>1378.1872558594</ele>
        <time>2019-08-13T17:20:47Z</time>
      </trkpt>
      <trkpt lat="44.88343" lon="3.44509">
        <ele>1375.7839355469</ele>
        <time>2019-08-13T17:20:54Z</time>
      </trkpt>
      <trkpt lat="44.88373" lon="3.44481">
        <ele>1373.380859375</ele>
        <time>2019-08-13T17:21:01Z</time>
      </trkpt>
      <trkpt lat="44.88398" lon="3.4446">
        <ele>1370.9772949219</ele>
        <time>2019-08-13T17:21:10Z</time>
      </trkpt>
      <trkpt lat="44.88428" lon="3.44438">
        <ele>1369.0546875</ele>
        <time>2019-08-13T17:21:20Z</time>
      </trkpt>
      <trkpt lat="44.88459" lon="3.44417">
        <ele>1367.1320800781</ele>
        <time>2019-08-13T17:21:30Z</time>
      </trkpt>
      <trkpt lat="44.88486" lon="3.444">
        <ele>1363.7673339844</ele>
        <time>2019-08-13T17:21:37Z</time>
      </trkpt>
      <trkpt lat="44.88491" lon="3.44398">
        <ele>1363.7673339844</ele>
        <time>2019-08-13T17:21:38Z</time>
      </trkpt>
      <trkpt lat="44.8851" lon="3.44387">
        <ele>1361.8449707031</ele>
        <time>2019-08-13T17:21:42Z</time>
      </trkpt>
      <trkpt lat="44.88525" lon="3.4438">
        <ele>1360.8835449219</ele>
        <time>2019-08-13T17:21:45Z</time>
      </trkpt>
      <trkpt lat="44.88557" lon="3.44364">
        <ele>1358.9609375</ele>
        <time>2019-08-13T17:21:54Z</time>
      </trkpt>
      <trkpt lat="44.88571" lon="3.44355">
        <ele>1356.0769042969</ele>
        <time>2019-08-13T17:21:59Z</time>
      </trkpt>
      <trkpt lat="44.88603" lon="3.44341">
        <ele>1354.634765625</ele>
        <time>2019-08-13T17:22:08Z</time>
      </trkpt>
      <trkpt lat="44.88607" lon="3.44338">
        <ele>1354.634765625</ele>
        <time>2019-08-13T17:22:11Z</time>
      </trkpt>
      <trkpt lat="44.88636" lon="3.44328">
        <ele>1351.7509765625</ele>
        <time>2019-08-13T17:22:22Z</time>
      </trkpt>
      <trkpt lat="44.88653" lon="3.44329">
        <ele>1351.2702636719</ele>
        <time>2019-08-13T17:22:27Z</time>
      </trkpt>
      <trkpt lat="44.88658" lon="3.44329">
        <ele>1350.7895507812</ele>
        <time>2019-08-13T17:22:29Z</time>
      </trkpt>
      <trkpt lat="44.88669" lon="3.4433">
        <ele>1350.3090820312</ele>
        <time>2019-08-13T17:22:33Z</time>
      </trkpt>
      <trkpt lat="44.88687" lon="3.4433">
        <ele>1347.4250488281</ele>
        <time>2019-08-13T17:22:42Z</time>
      </trkpt>
      <trkpt lat="44.88716" lon="3.44329">
        <ele>1344.541015625</ele>
        <time>2019-08-13T17:22:55Z</time>
      </trkpt>
      <trkpt lat="44.88742" lon="3.44335">
        <ele>1342.6186523438</ele>
        <time>2019-08-13T17:23:04Z</time>
      </trkpt>
      <trkpt lat="44.88759" lon="3.44338">
        <ele>1341.1765136719</ele>
        <time>2019-08-13T17:23:09Z</time>
      </trkpt>
      <trkpt lat="44.88766" lon="3.44342">
        <ele>1340.6958007812</ele>
        <time>2019-08-13T17:23:11Z</time>
      </trkpt>
      <trkpt lat="44.888" lon="3.44361">
        <ele>1339.2536621094</ele>
        <time>2019-08-13T17:23:22Z</time>
      </trkpt>
      <trkpt lat="44.88832" lon="3.44387">
        <ele>1336.3698730469</ele>
        <time>2019-08-13T17:23:31Z</time>
      </trkpt>
      <trkpt lat="44.88851" lon="3.44398">
        <ele>1333.9665527344</ele>
        <time>2019-08-13T17:23:35Z</time>
      </trkpt>
      <trkpt lat="44.88864" lon="3.44409">
        <ele>1333.4858398438</ele>
        <time>2019-08-13T17:23:38Z</time>
      </trkpt>
      <trkpt lat="44.88879" lon="3.44422">
        <ele>1331.5632324219</ele>
        <time>2019-08-13T17:23:42Z</time>
      </trkpt>
      <trkpt lat="44.88922" lon="3.4445">
        <ele>1328.6794433594</ele>
        <time>2019-08-13T17:23:51Z</time>
      </trkpt>
      <trkpt lat="44.88938" lon="3.44461">
        <ele>1327.2375488281</ele>
        <time>2019-08-13T17:23:54Z</time>
      </trkpt>
      <trkpt lat="44.88953" lon="3.44472">
        <ele>1325.3146972656</ele>
        <time>2019-08-13T17:23:57Z</time>
      </trkpt>
      <trkpt lat="44.88983" lon="3.44475">
        <ele>1323.3920898438</ele>
        <time>2019-08-13T17:24:05Z</time>
      </trkpt>
      <trkpt lat="44.88996" lon="3.44478">
        <ele>1323.3920898438</ele>
        <time>2019-08-13T17:24:13Z</time>
      </trkpt>
      <trkpt lat="44.89002" lon="3.4448">
        <ele>1322.9113769531</ele>
        <time>2019-08-13T17:24:17Z</time>
      </trkpt>
      <trkpt lat="44.89017" lon="3.44488">
        <ele>1320.9887695312</ele>
        <time>2019-08-13T17:24:22Z</time>
      </trkpt>
      <trkpt lat="44.89035" lon="3.44495">
        <ele>1318.5854492188</ele>
        <time>2019-08-13T17:24:27Z</time>
      </trkpt>
      <trkpt lat="44.89039" lon="3.44496">
        <ele>1317.1435546875</ele>
        <time>2019-08-13T17:24:28Z</time>
      </trkpt>
      <trkpt lat="44.89065" lon="3.44499">
        <ele>1315.7016601562</ele>
        <time>2019-08-13T17:24:34Z</time>
      </trkpt>
      <trkpt lat="44.89073" lon="3.44497">
        <ele>1314.2595214844</ele>
        <time>2019-08-13T17:24:36Z</time>
      </trkpt>
      <trkpt lat="44.89092" lon="3.44488">
        <ele>1310.8950195312</ele>
        <time>2019-08-13T17:24:42Z</time>
      </trkpt>
      <trkpt lat="44.89115" lon="3.44492">
        <ele>1308.9724121094</ele>
        <time>2019-08-13T17:24:49Z</time>
      </trkpt>
      <trkpt lat="44.89129" lon="3.44488">
        <ele>1307.5302734375</ele>
        <time>2019-08-13T17:24:53Z</time>
      </trkpt>
      <trkpt lat="44.89142" lon="3.44486">
        <ele>1306.0881347656</ele>
        <time>2019-08-13T17:24:57Z</time>
      </trkpt>
      <trkpt lat="44.89151" lon="3.44486">
        <ele>1305.126953125</ele>
        <time>2019-08-13T17:24:59Z</time>
      </trkpt>
      <trkpt lat="44.89175" lon="3.44494">
        <ele>1302.7236328125</ele>
        <time>2019-08-13T17:25:04Z</time>
      </trkpt>
      <trkpt lat="44.89184" lon="3.44497">
        <ele>1301.2817382812</ele>
        <time>2019-08-13T17:25:06Z</time>
      </trkpt>
      <trkpt lat="44.89208" lon="3.44499">
        <ele>1298.8784179688</ele>
        <time>2019-08-13T17:25:10Z</time>
      </trkpt>
      <trkpt lat="44.89248" lon="3.44502">
        <ele>1296.9558105469</ele>
        <time>2019-08-13T17:25:17Z</time>
      </trkpt>
      <trkpt lat="44.89265" lon="3.44501">
        <ele>1295.5139160156</ele>
        <time>2019-08-13T17:25:21Z</time>
      </trkpt>
      <trkpt lat="44.89291" lon="3.44507">
        <ele>1292.1494140625</ele>
        <time>2019-08-13T17:25:26Z</time>
      </trkpt>
      <trkpt lat="44.89297" lon="3.4451">
        <ele>1292.1494140625</ele>
        <time>2019-08-13T17:25:27Z</time>
      </trkpt>
      <trkpt lat="44.89307" lon="3.44513">
        <ele>1292.1494140625</ele>
        <time>2019-08-13T17:25:29Z</time>
      </trkpt>
      <trkpt lat="44.89333" lon="3.44518">
        <ele>1289.7458496094</ele>
        <time>2019-08-13T17:25:34Z</time>
      </trkpt>
      <trkpt lat="44.89343" lon="3.44521">
        <ele>1289.2651367188</ele>
        <time>2019-08-13T17:25:36Z</time>
      </trkpt>
      <trkpt lat="44.89377" lon="3.44545">
        <ele>1287.8232421875</ele>
        <time>2019-08-13T17:25:44Z</time>
      </trkpt>
      <trkpt lat="44.89431" lon="3.44572">
        <ele>1287.8232421875</ele>
        <time>2019-08-13T17:26:00Z</time>
      </trkpt>
      <trkpt lat="44.89466" lon="3.44585">
        <ele>1288.3039550781</ele>
        <time>2019-08-13T17:26:15Z</time>
      </trkpt>
      <trkpt lat="44.895" lon="3.44594">
        <ele>1288.7846679688</ele>
        <time>2019-08-13T17:26:31Z</time>
      </trkpt>
      <trkpt lat="44.8953" lon="3.44604">
        <ele>1289.2651367188</ele>
        <time>2019-08-13T17:26:45Z</time>
      </trkpt>
      <trkpt lat="44.89564" lon="3.44615">
        <ele>1289.7458496094</ele>
        <time>2019-08-13T17:27:01Z</time>
      </trkpt>
      <trkpt lat="44.89613" lon="3.44635">
        <ele>1287.3425292969</ele>
        <time>2019-08-13T17:27:17Z</time>
      </trkpt>
      <trkpt lat="44.89635" lon="3.44628">
        <ele>1285.419921875</ele>
        <time>2019-08-13T17:27:22Z</time>
      </trkpt>
      <trkpt lat="44.89648" lon="3.44626">
        <ele>1283.9780273438</ele>
        <time>2019-08-13T17:27:25Z</time>
      </trkpt>
      <trkpt lat="44.89658" lon="3.44625">
        <ele>1283.0166015625</ele>
        <time>2019-08-13T17:27:27Z</time>
      </trkpt>
      <trkpt lat="44.89663" lon="3.44625">
        <ele>1281.5747070312</ele>
        <time>2019-08-13T17:27:28Z</time>
      </trkpt>
      <trkpt lat="44.89685" lon="3.44628">
        <ele>1278.6909179688</ele>
        <time>2019-08-13T17:27:32Z</time>
      </trkpt>
      <trkpt lat="44.89708" lon="3.44636">
        <ele>1274.8454589844</ele>
        <time>2019-08-13T17:27:38Z</time>
      </trkpt>
      <trkpt lat="44.89721" lon="3.44639">
        <ele>1273.8840332031</ele>
        <time>2019-08-13T17:27:41Z</time>
      </trkpt>
      <trkpt lat="44.89742" lon="3.44653">
        <ele>1271.0002441406</ele>
        <time>2019-08-13T17:27:46Z</time>
      </trkpt>
      <trkpt lat="44.89765" lon="3.44676">
        <ele>1266.6743164062</ele>
        <time>2019-08-13T17:27:51Z</time>
      </trkpt>
      <trkpt lat="44.89843" lon="3.44694">
        <ele>1262.3483886719</ele>
        <time>2019-08-13T17:27:58Z</time>
      </trkpt>
      <trkpt lat="44.89844" lon="3.44706">
        <ele>1260.9064941406</ele>
        <time>2019-08-13T17:28:00Z</time>
      </trkpt>
      <trkpt lat="44.89844" lon="3.4471">
        <ele>1260.9064941406</ele>
        <time>2019-08-13T17:28:01Z</time>
      </trkpt>
      <trkpt lat="44.89861" lon="3.44732">
        <ele>1259.9448242188</ele>
        <time>2019-08-13T17:28:13Z</time>
      </trkpt>
      <trkpt lat="44.89876" lon="3.44749">
        <ele>1258.0224609375</ele>
        <time>2019-08-13T17:28:26Z</time>
      </trkpt>
      <trkpt lat="44.89895" lon="3.44772">
        <ele>1255.1384277344</ele>
        <time>2019-08-13T17:28:33Z</time>
      </trkpt>
      <trkpt lat="44.89903" lon="3.44787">
        <ele>1253.6965332031</ele>
        <time>2019-08-13T17:28:36Z</time>
      </trkpt>
      <trkpt lat="44.89913" lon="3.44818">
        <ele>1252.7351074219</ele>
        <time>2019-08-13T17:28:41Z</time>
      </trkpt>
      <trkpt lat="44.89916" lon="3.44839">
        <ele>1249.8513183594</ele>
        <time>2019-08-13T17:28:44Z</time>
      </trkpt>
      <trkpt lat="44.89917" lon="3.44853">
        <ele>1248.8898925781</ele>
        <time>2019-08-13T17:28:46Z</time>
      </trkpt>
      <trkpt lat="44.89918" lon="3.4486">
        <ele>1248.8898925781</ele>
        <time>2019-08-13T17:28:47Z</time>
      </trkpt>
      <trkpt lat="44.89913" lon="3.44892">
        <ele>1246.4868164062</ele>
        <time>2019-08-13T17:28:52Z</time>
      </trkpt>
      <trkpt lat="44.89901" lon="3.44911">
        <ele>1244.5639648438</ele>
        <time>2019-08-13T17:28:55Z</time>
      </trkpt>
      <trkpt lat="44.89898" lon="3.44916">
        <ele>1244.5639648438</ele>
        <time>2019-08-13T17:28:56Z</time>
      </trkpt>
      <trkpt lat="44.89886" lon="3.44942">
        <ele>1241.19921875</ele>
        <time>2019-08-13T17:29:00Z</time>
      </trkpt>
      <trkpt lat="44.89883" lon="3.44955">
        <ele>1241.19921875</ele>
        <time>2019-08-13T17:29:02Z</time>
      </trkpt>
      <trkpt lat="44.89881" lon="3.4497">
        <ele>1239.7573242188</ele>
        <time>2019-08-13T17:29:04Z</time>
      </trkpt>
      <trkpt lat="44.89881" lon="3.44984">
        <ele>1238.3154296875</ele>
        <time>2019-08-13T17:29:06Z</time>
      </trkpt>
      <trkpt lat="44.89884" lon="3.45009">
        <ele>1236.3928222656</ele>
        <time>2019-08-13T17:29:09Z</time>
      </trkpt>
      <trkpt lat="44.8989" lon="3.45028">
        <ele>1234.9509277344</ele>
        <time>2019-08-13T17:29:11Z</time>
      </trkpt>
      <trkpt lat="44.89899" lon="3.45055">
        <ele>1232.5476074219</ele>
        <time>2019-08-13T17:29:14Z</time>
      </trkpt>
      <trkpt lat="44.89911" lon="3.45082">
        <ele>1233.0280761719</ele>
        <time>2019-08-13T17:29:17Z</time>
      </trkpt>
      <trkpt lat="44.89949" lon="3.45129">
        <ele>1232.5476074219</ele>
        <time>2019-08-13T17:29:26Z</time>
      </trkpt>
      <trkpt lat="44.8996" lon="3.4514">
        <ele>1233.0280761719</ele>
        <time>2019-08-13T17:29:29Z</time>
      </trkpt>
      <trkpt lat="44.89975" lon="3.45178">
        <ele>1234.9509277344</ele>
        <time>2019-08-13T17:29:39Z</time>
      </trkpt>
      <trkpt lat="44.89996" lon="3.4521">
        <ele>1236.8732910156</ele>
        <time>2019-08-13T17:29:53Z</time>
      </trkpt>
      <trkpt lat="44.90035" lon="3.45237">
        <ele>1236.8732910156</ele>
        <time>2019-08-13T17:30:08Z</time>
      </trkpt>
      <trkpt lat="44.9007" lon="3.45284">
        <ele>1236.3928222656</ele>
        <time>2019-08-13T17:30:22Z</time>
      </trkpt>
      <trkpt lat="44.90122" lon="3.45342">
        <ele>1235.4313964844</ele>
        <time>2019-08-13T17:30:39Z</time>
      </trkpt>
      <trkpt lat="44.90164" lon="3.45371">
        <ele>1231.1057128906</ele>
        <time>2019-08-13T17:30:48Z</time>
      </trkpt>
      <trkpt lat="44.90169" lon="3.45375">
        <ele>1231.1057128906</ele>
        <time>2019-08-13T17:30:49Z</time>
      </trkpt>
      <trkpt lat="44.90174" lon="3.45381">
        <ele>1230.625</ele>
        <time>2019-08-13T17:30:50Z</time>
      </trkpt>
      <trkpt lat="44.90239" lon="3.45446">
        <ele>1231.1057128906</ele>
        <time>2019-08-13T17:31:05Z</time>
      </trkpt>
      <trkpt lat="44.90252" lon="3.45461">
        <ele>1233.0280761719</ele>
        <time>2019-08-13T17:31:12Z</time>
      </trkpt>
      <trkpt lat="44.9027" lon="3.45469">
        <ele>1233.5087890625</ele>
        <time>2019-08-13T17:31:19Z</time>
      </trkpt>
      <trkpt lat="44.90313" lon="3.45474">
        <ele>1235.912109375</ele>
        <time>2019-08-13T17:31:37Z</time>
      </trkpt>
      <trkpt lat="44.90361" lon="3.45469">
        <ele>1236.8732910156</ele>
        <time>2019-08-13T17:31:55Z</time>
      </trkpt>
      <trkpt lat="44.90405" lon="3.45495">
        <ele>1238.3154296875</ele>
        <time>2019-08-13T17:32:11Z</time>
      </trkpt>
      <trkpt lat="44.9043" lon="3.45515">
        <ele>1237.8347167969</ele>
        <time>2019-08-13T17:32:19Z</time>
      </trkpt>
      <trkpt lat="44.90458" lon="3.45541">
        <ele>1235.4313964844</ele>
        <time>2019-08-13T17:32:26Z</time>
      </trkpt>
      <trkpt lat="44.90475" lon="3.45557">
        <ele>1234.4702148438</ele>
        <time>2019-08-13T17:32:30Z</time>
      </trkpt>
      <trkpt lat="44.90487" lon="3.45576">
        <ele>1233.9895019531</ele>
        <time>2019-08-13T17:32:34Z</time>
      </trkpt>
      <trkpt lat="44.90493" lon="3.45592">
        <ele>1233.5087890625</ele>
        <time>2019-08-13T17:32:37Z</time>
      </trkpt>
      <trkpt lat="44.90497" lon="3.45602">
        <ele>1233.0280761719</ele>
        <time>2019-08-13T17:32:39Z</time>
      </trkpt>
      <trkpt lat="44.905" lon="3.45647">
        <ele>1233.0280761719</ele>
        <time>2019-08-13T17:32:47Z</time>
      </trkpt>
      <trkpt lat="44.90532" lon="3.45718">
        <ele>1229.1828613281</ele>
        <time>2019-08-13T17:32:59Z</time>
      </trkpt>
      <trkpt lat="44.90542" lon="3.45729">
        <ele>1228.2216796875</ele>
        <time>2019-08-13T17:33:01Z</time>
      </trkpt>
      <trkpt lat="44.90558" lon="3.45755">
        <ele>1225.8181152344</ele>
        <time>2019-08-13T17:33:05Z</time>
      </trkpt>
      <trkpt lat="44.90584" lon="3.45799">
        <ele>1223.4150390625</ele>
        <time>2019-08-13T17:33:11Z</time>
      </trkpt>
      <trkpt lat="44.90618" lon="3.45888">
        <ele>1220.0502929688</ele>
        <time>2019-08-13T17:33:22Z</time>
      </trkpt>
      <trkpt lat="44.90624" lon="3.45904">
        <ele>1219.0891113281</ele>
        <time>2019-08-13T17:33:24Z</time>
      </trkpt>
      <trkpt lat="44.90631" lon="3.4592">
        <ele>1217.6469726562</ele>
        <time>2019-08-13T17:33:26Z</time>
      </trkpt>
      <trkpt lat="44.90644" lon="3.45954">
        <ele>1214.2824707031</ele>
        <time>2019-08-13T17:33:30Z</time>
      </trkpt>
      <trkpt lat="44.90648" lon="3.45963">
        <ele>1214.2824707031</ele>
        <time>2019-08-13T17:33:31Z</time>
      </trkpt>
      <trkpt lat="44.90655" lon="3.45985">
        <ele>1212.3598632812</ele>
        <time>2019-08-13T17:33:33Z</time>
      </trkpt>
      <trkpt lat="44.90669" lon="3.46041">
        <ele>1210.4370117188</ele>
        <time>2019-08-13T17:33:38Z</time>
      </trkpt>
      <trkpt lat="44.90673" lon="3.46086">
        <ele>1209.4758300781</ele>
        <time>2019-08-13T17:33:42Z</time>
      </trkpt>
      <trkpt lat="44.90726" lon="3.46194">
        <ele>1211.3984375</ele>
        <time>2019-08-13T17:33:52Z</time>
      </trkpt>
      <trkpt lat="44.90726" lon="3.46194">
        <ele>1212.3598632812</ele>
        <time>2019-08-13T17:33:54Z</time>
      </trkpt>
      <trkpt lat="44.90726" lon="3.46194">
        <ele>1214.2824707031</ele>
        <time>2019-08-13T17:34:08Z</time>
      </trkpt>
      <trkpt lat="44.90729" lon="3.46195">
        <ele>1214.2824707031</ele>
        <time>2019-08-13T17:34:20Z</time>
      </trkpt>
      <trkpt lat="44.90729" lon="3.46195">
        <ele>1214.2824707031</ele>
        <time>2019-08-13T17:34:21Z</time>
      </trkpt>
      <trkpt lat="44.90726" lon="3.46194">
        <ele>1213.8017578125</ele>
        <time>2019-08-13T17:34:24Z</time>
      </trkpt>
      <trkpt lat="44.90726" lon="3.46194">
        <ele>1216.205078125</ele>
        <time>2019-08-13T17:34:41Z</time>
      </trkpt>
      <trkpt lat="44.90652" lon="3.46226">
        <ele>1219.0891113281</ele>
        <time>2019-08-13T17:34:58Z</time>
      </trkpt>
      <trkpt lat="44.90613" lon="3.46235">
        <ele>1220.0502929688</ele>
        <time>2019-08-13T17:35:13Z</time>
      </trkpt>
      <trkpt lat="44.90568" lon="3.46248">
        <ele>1221.4921875</ele>
        <time>2019-08-13T17:35:29Z</time>
      </trkpt>
      <trkpt lat="44.90518" lon="3.46275">
        <ele>1222.4536132812</ele>
        <time>2019-08-13T17:35:46Z</time>
      </trkpt>
      <trkpt lat="44.90486" lon="3.46299">
        <ele>1222.4536132812</ele>
        <time>2019-08-13T17:35:55Z</time>
      </trkpt>
      <trkpt lat="44.90454" lon="3.46327">
        <ele>1221.9729003906</ele>
        <time>2019-08-13T17:36:04Z</time>
      </trkpt>
      <trkpt lat="44.90437" lon="3.46347">
        <ele>1221.9729003906</ele>
        <time>2019-08-13T17:36:09Z</time>
      </trkpt>
      <trkpt lat="44.90396" lon="3.46372">
        <ele>1221.9729003906</ele>
        <time>2019-08-13T17:36:20Z</time>
      </trkpt>
      <trkpt lat="44.90356" lon="3.46373">
        <ele>1221.4921875</ele>
        <time>2019-08-13T17:36:29Z</time>
      </trkpt>
      <trkpt lat="44.90343" lon="3.46371">
        <ele>1221.9729003906</ele>
        <time>2019-08-13T17:36:32Z</time>
      </trkpt>
      <trkpt lat="44.90325" lon="3.46368">
        <ele>1221.9729003906</ele>
        <time>2019-08-13T17:36:36Z</time>
      </trkpt>
      <trkpt lat="44.90299" lon="3.4636">
        <ele>1221.9729003906</ele>
        <time>2019-08-13T17:36:42Z</time>
      </trkpt>
      <trkpt lat="44.90282" lon="3.46356">
        <ele>1222.4536132812</ele>
        <time>2019-08-13T17:36:47Z</time>
      </trkpt>
      <trkpt lat="44.90253" lon="3.46336">
        <ele>1222.9343261719</ele>
        <time>2019-08-13T17:37:00Z</time>
      </trkpt>
      <trkpt lat="44.90248" lon="3.46331">
        <ele>1222.9343261719</ele>
        <time>2019-08-13T17:37:02Z</time>
      </trkpt>
      <trkpt lat="44.90245" lon="3.46337">
        <ele>1222.9343261719</ele>
        <time>2019-08-13T17:37:06Z</time>
      </trkpt>
      <trkpt lat="44.90269" lon="3.46373">
        <ele>1221.9729003906</ele>
        <time>2019-08-13T17:37:23Z</time>
      </trkpt>
      <trkpt lat="44.90284" lon="3.46401">
        <ele>1221.4921875</ele>
        <time>2019-08-13T17:37:36Z</time>
      </trkpt>
      <trkpt lat="44.90313" lon="3.4646">
        <ele>1220.5310058594</ele>
        <time>2019-08-13T17:37:51Z</time>
      </trkpt>
      <trkpt lat="44.9034" lon="3.4653">
        <ele>1219.5698242188</ele>
        <time>2019-08-13T17:38:06Z</time>
      </trkpt>
      <trkpt lat="44.90344" lon="3.46563">
        <ele>1220.0502929688</ele>
        <time>2019-08-13T17:38:14Z</time>
      </trkpt>
      <trkpt lat="44.90348" lon="3.46573">
        <ele>1220.0502929688</ele>
        <time>2019-08-13T17:38:18Z</time>
      </trkpt>
      <trkpt lat="44.90357" lon="3.46583">
        <ele>1220.0502929688</ele>
        <time>2019-08-13T17:38:23Z</time>
      </trkpt>
      <trkpt lat="44.90372" lon="3.46613">
        <ele>1220.0502929688</ele>
        <time>2019-08-13T17:38:33Z</time>
      </trkpt>
      <trkpt lat="44.90378" lon="3.46622">
        <ele>1220.0502929688</ele>
        <time>2019-08-13T17:38:37Z</time>
      </trkpt>
      <trkpt lat="44.90402" lon="3.46647">
        <ele>1220.0502929688</ele>
        <time>2019-08-13T17:38:51Z</time>
      </trkpt>
      <trkpt lat="44.90423" lon="3.46687">
        <ele>1219.0891113281</ele>
        <time>2019-08-13T17:39:07Z</time>
      </trkpt>
      <trkpt lat="44.90442" lon="3.46746">
        <ele>1217.6469726562</ele>
        <time>2019-08-13T17:39:22Z</time>
      </trkpt>
      <trkpt lat="44.90454" lon="3.46815">
        <ele>1217.1665039062</ele>
        <time>2019-08-13T17:39:37Z</time>
      </trkpt>
      <trkpt lat="44.90476" lon="3.46858">
        <ele>1216.6857910156</ele>
        <time>2019-08-13T17:39:51Z</time>
      </trkpt>
      <trkpt lat="44.9048" lon="3.46869">
        <ele>1216.6857910156</ele>
        <time>2019-08-13T17:39:54Z</time>
      </trkpt>
      <trkpt lat="44.90497" lon="3.46947">
        <ele>1213.8017578125</ele>
        <time>2019-08-13T17:40:09Z</time>
      </trkpt>
      <trkpt lat="44.90499" lon="3.46958">
        <ele>1214.2824707031</ele>
        <time>2019-08-13T17:40:11Z</time>
      </trkpt>
      <trkpt lat="44.90501" lon="3.4697">
        <ele>1213.8017578125</ele>
        <time>2019-08-13T17:40:13Z</time>
      </trkpt>
      <trkpt lat="44.90499" lon="3.46987">
        <ele>1212.3598632812</ele>
        <time>2019-08-13T17:40:16Z</time>
      </trkpt>
      <trkpt lat="44.90497" lon="3.46993">
        <ele>1211.8791503906</ele>
        <time>2019-08-13T17:40:17Z</time>
      </trkpt>
      <trkpt lat="44.90491" lon="3.4701">
        <ele>1210.9177246094</ele>
        <time>2019-08-13T17:40:20Z</time>
      </trkpt>
      <trkpt lat="44.90487" lon="3.47032">
        <ele>1209.4758300781</ele>
        <time>2019-08-13T17:40:23Z</time>
      </trkpt>
      <trkpt lat="44.90485" lon="3.47038">
        <ele>1208.9951171875</ele>
        <time>2019-08-13T17:40:24Z</time>
      </trkpt>
      <trkpt lat="44.90473" lon="3.47059">
        <ele>1208.9951171875</ele>
        <time>2019-08-13T17:40:28Z</time>
      </trkpt>
      <trkpt lat="44.90469" lon="3.47068">
        <ele>1208.9951171875</ele>
        <time>2019-08-13T17:40:30Z</time>
      </trkpt>
      <trkpt lat="44.90471" lon="3.47089">
        <ele>1208.9951171875</ele>
        <time>2019-08-13T17:40:34Z</time>
      </trkpt>
      <trkpt lat="44.90482" lon="3.47116">
        <ele>1207.5532226562</ele>
        <time>2019-08-13T17:40:39Z</time>
      </trkpt>
      <trkpt lat="44.90497" lon="3.47141">
        <ele>1206.1110839844</ele>
        <time>2019-08-13T17:40:44Z</time>
      </trkpt>
      <trkpt lat="44.905" lon="3.47155">
        <ele>1205.1499023438</ele>
        <time>2019-08-13T17:40:46Z</time>
      </trkpt>
      <trkpt lat="44.90504" lon="3.47173">
        <ele>1204.6691894531</ele>
        <time>2019-08-13T17:40:49Z</time>
      </trkpt>
      <trkpt lat="44.90506" lon="3.47198">
        <ele>1203.2272949219</ele>
        <time>2019-08-13T17:40:53Z</time>
      </trkpt>
      <trkpt lat="44.90504" lon="3.47211">
        <ele>1203.7080078125</ele>
        <time>2019-08-13T17:40:55Z</time>
      </trkpt>
      <trkpt lat="44.90482" lon="3.47255">
        <ele>1200.3435058594</ele>
        <time>2019-08-13T17:41:04Z</time>
      </trkpt>
      <trkpt lat="44.90475" lon="3.47278">
        <ele>1197.9401855469</ele>
        <time>2019-08-13T17:41:07Z</time>
      </trkpt>
      <trkpt lat="44.90471" lon="3.47292">
        <ele>1196.017578125</ele>
        <time>2019-08-13T17:41:09Z</time>
      </trkpt>
      <trkpt lat="44.90465" lon="3.47313">
        <ele>1196.9787597656</ele>
        <time>2019-08-13T17:41:13Z</time>
      </trkpt>
      <trkpt lat="44.90473" lon="3.4733">
        <ele>1195.0559082031</ele>
        <time>2019-08-13T17:41:20Z</time>
      </trkpt>
      <trkpt lat="44.90516" lon="3.47345">
        <ele>1194.5751953125</ele>
        <time>2019-08-13T17:41:35Z</time>
      </trkpt>
      <trkpt lat="44.9056" lon="3.47383">
        <ele>1193.1333007812</ele>
        <time>2019-08-13T17:41:48Z</time>
      </trkpt>
      <trkpt lat="44.9061" lon="3.47419">
        <ele>1190.7299804688</ele>
        <time>2019-08-13T17:42:00Z</time>
      </trkpt>
      <trkpt lat="44.90635" lon="3.47413">
        <ele>1190.7299804688</ele>
        <time>2019-08-13T17:42:06Z</time>
      </trkpt>
      <trkpt lat="44.90647" lon="3.47404">
        <ele>1190.2495117188</ele>
        <time>2019-08-13T17:42:09Z</time>
      </trkpt>
      <trkpt lat="44.90666" lon="3.47398">
        <ele>1187.3654785156</ele>
        <time>2019-08-13T17:42:13Z</time>
      </trkpt>
      <trkpt lat="44.90687" lon="3.4741">
        <ele>1186.884765625</ele>
        <time>2019-08-13T17:42:18Z</time>
      </trkpt>
      <trkpt lat="44.90698" lon="3.47431">
        <ele>1187.3654785156</ele>
        <time>2019-08-13T17:42:22Z</time>
      </trkpt>
      <trkpt lat="44.90714" lon="3.47448">
        <ele>1187.3654785156</ele>
        <time>2019-08-13T17:42:27Z</time>
      </trkpt>
      <trkpt lat="44.9072" lon="3.47457">
        <ele>1187.3654785156</ele>
        <time>2019-08-13T17:42:29Z</time>
      </trkpt>
      <trkpt lat="44.90759" lon="3.47527">
        <ele>1187.3654785156</ele>
        <time>2019-08-13T17:42:45Z</time>
      </trkpt>
      <trkpt lat="44.90792" lon="3.47589">
        <ele>1188.3269042969</ele>
        <time>2019-08-13T17:43:02Z</time>
      </trkpt>
      <trkpt lat="44.90823" lon="3.47644">
        <ele>1186.884765625</ele>
        <time>2019-08-13T17:43:16Z</time>
      </trkpt>
      <trkpt lat="44.90842" lon="3.47672">
        <ele>1185.4428710938</ele>
        <time>2019-08-13T17:43:22Z</time>
      </trkpt>
      <trkpt lat="44.90859" lon="3.47689">
        <ele>1183.5202636719</ele>
        <time>2019-08-13T17:43:26Z</time>
      </trkpt>
      <trkpt lat="44.90863" lon="3.47693">
        <ele>1183.0395507812</ele>
        <time>2019-08-13T17:43:27Z</time>
      </trkpt>
      <trkpt lat="44.90895" lon="3.47795">
        <ele>1181.1171875</ele>
        <time>2019-08-13T17:43:35Z</time>
      </trkpt>
      <trkpt lat="44.90928" lon="3.47798">
        <ele>1181.1171875</ele>
        <time>2019-08-13T17:43:45Z</time>
      </trkpt>
      <trkpt lat="44.90944" lon="3.47784">
        <ele>1182.5590820312</ele>
        <time>2019-08-13T17:43:54Z</time>
      </trkpt>
      <trkpt lat="44.90945" lon="3.47784">
        <ele>1182.5590820312</ele>
        <time>2019-08-13T17:44:05Z</time>
      </trkpt>
      <trkpt lat="44.90971" lon="3.47812">
        <ele>1182.5590820312</ele>
        <time>2019-08-13T17:44:20Z</time>
      </trkpt>
      <trkpt lat="44.91023" lon="3.47847">
        <ele>1182.5590820312</ele>
        <time>2019-08-13T17:44:37Z</time>
      </trkpt>
      <trkpt lat="44.91085" lon="3.4789">
        <ele>1180.6364746094</ele>
        <time>2019-08-13T17:44:53Z</time>
      </trkpt>
      <trkpt lat="44.91105" lon="3.47903">
        <ele>1178.2329101562</ele>
        <time>2019-08-13T17:44:57Z</time>
      </trkpt>
      <trkpt lat="44.9111" lon="3.47907">
        <ele>1178.7136230469</ele>
        <time>2019-08-13T17:44:58Z</time>
      </trkpt>
      <trkpt lat="44.91161" lon="3.47944">
        <ele>1174.8684082031</ele>
        <time>2019-08-13T17:45:07Z</time>
      </trkpt>
      <trkpt lat="44.91202" lon="3.47977">
        <ele>1171.984375</ele>
        <time>2019-08-13T17:45:14Z</time>
      </trkpt>
      <trkpt lat="44.91239" lon="3.48002">
        <ele>1169.5812988281</ele>
        <time>2019-08-13T17:45:20Z</time>
      </trkpt>
      <trkpt lat="44.91255" lon="3.48012">
        <ele>1165.2553710938</ele>
        <time>2019-08-13T17:45:22Z</time>
      </trkpt>
      <trkpt lat="44.91264" lon="3.48017">
        <ele>1165.2553710938</ele>
        <time>2019-08-13T17:45:23Z</time>
      </trkpt>
      <trkpt lat="44.91273" lon="3.48023">
        <ele>1161.890625</ele>
        <time>2019-08-13T17:45:24Z</time>
      </trkpt>
      <trkpt lat="44.91283" lon="3.48029">
        <ele>1161.890625</ele>
        <time>2019-08-13T17:45:25Z</time>
      </trkpt>
      <trkpt lat="44.91293" lon="3.48035">
        <ele>1157.5646972656</ele>
        <time>2019-08-13T17:45:26Z</time>
      </trkpt>
      <trkpt lat="44.91304" lon="3.48042">
        <ele>1157.5646972656</ele>
        <time>2019-08-13T17:45:27Z</time>
      </trkpt>
      <trkpt lat="44.91326" lon="3.48055">
        <ele>1152.7580566406</ele>
        <time>2019-08-13T17:45:29Z</time>
      </trkpt>
      <trkpt lat="44.91338" lon="3.48062">
        <ele>1152.7580566406</ele>
        <time>2019-08-13T17:45:30Z</time>
      </trkpt>
      <trkpt lat="44.9135" lon="3.48067">
        <ele>1148.4321289062</ele>
        <time>2019-08-13T17:45:31Z</time>
      </trkpt>
      <trkpt lat="44.91362" lon="3.48073">
        <ele>1148.4321289062</ele>
        <time>2019-08-13T17:45:32Z</time>
      </trkpt>
      <trkpt lat="44.91388" lon="3.48085">
        <ele>1145.5480957031</ele>
        <time>2019-08-13T17:45:34Z</time>
      </trkpt>
      <trkpt lat="44.91423" lon="3.48104">
        <ele>1145.0673828125</ele>
        <time>2019-08-13T17:45:37Z</time>
      </trkpt>
      <trkpt lat="44.91453" lon="3.48109">
        <ele>1148.4321289062</ele>
        <time>2019-08-13T17:45:41Z</time>
      </trkpt>
      <trkpt lat="44.91502" lon="3.481">
        <ele>1150.3549804688</ele>
        <time>2019-08-13T17:45:54Z</time>
      </trkpt>
      <trkpt lat="44.91523" lon="3.48096">
        <ele>1148.9128417969</ele>
        <time>2019-08-13T17:46:00Z</time>
      </trkpt>
      <trkpt lat="44.91546" lon="3.48103">
        <ele>1147.470703125</ele>
        <time>2019-08-13T17:46:04Z</time>
      </trkpt>
      <trkpt lat="44.91559" lon="3.48109">
        <ele>1143.1447753906</ele>
        <time>2019-08-13T17:46:06Z</time>
      </trkpt>
      <trkpt lat="44.91584" lon="3.48116">
        <ele>1141.2221679688</ele>
        <time>2019-08-13T17:46:09Z</time>
      </trkpt>
      <trkpt lat="44.91602" lon="3.48121">
        <ele>1139.7802734375</ele>
        <time>2019-08-13T17:46:11Z</time>
      </trkpt>
      <trkpt lat="44.91632" lon="3.48128">
        <ele>1136.4157714844</ele>
        <time>2019-08-13T17:46:14Z</time>
      </trkpt>
      <trkpt lat="44.91671" lon="3.48152">
        <ele>1134.4931640625</ele>
        <time>2019-08-13T17:46:18Z</time>
      </trkpt>
      <trkpt lat="44.91692" lon="3.48178">
        <ele>1132.08984375</ele>
        <time>2019-08-13T17:46:21Z</time>
      </trkpt>
      <trkpt lat="44.91698" lon="3.4819">
        <ele>1131.6088867188</ele>
        <time>2019-08-13T17:46:22Z</time>
      </trkpt>
      <trkpt lat="44.9174" lon="3.48308">
        <ele>1130.6477050781</ele>
        <time>2019-08-13T17:46:32Z</time>
      </trkpt>
      <trkpt lat="44.91743" lon="3.48318">
        <ele>1129.2055664062</ele>
        <time>2019-08-13T17:46:35Z</time>
      </trkpt>
      <trkpt lat="44.91777" lon="3.48364">
        <ele>1128.2443847656</ele>
        <time>2019-08-13T17:46:38Z</time>
      </trkpt>
      <trkpt lat="44.91798" lon="3.48392">
        <ele>1123.9184570312</ele>
        <time>2019-08-13T17:46:41Z</time>
      </trkpt>
      <trkpt lat="44.91804" lon="3.484">
        <ele>1123.9184570312</ele>
        <time>2019-08-13T17:46:42Z</time>
      </trkpt>
      <trkpt lat="44.91811" lon="3.48404">
        <ele>1123.4379882812</ele>
        <time>2019-08-13T17:46:43Z</time>
      </trkpt>
      <trkpt lat="44.91836" lon="3.4842">
        <ele>1123.9184570312</ele>
        <time>2019-08-13T17:46:51Z</time>
      </trkpt>
      <trkpt lat="44.91838" lon="3.48421">
        <ele>1121.5151367188</ele>
        <time>2019-08-13T17:46:55Z</time>
      </trkpt>
      <trkpt lat="44.91869" lon="3.48425">
        <ele>1117.189453125</ele>
        <time>2019-08-13T17:46:57Z</time>
      </trkpt>
      <trkpt lat="44.91877" lon="3.48426">
        <ele>1117.189453125</ele>
        <time>2019-08-13T17:46:58Z</time>
      </trkpt>
      <trkpt lat="44.91895" lon="3.48429">
        <ele>1115.2666015625</ele>
        <time>2019-08-13T17:47:00Z</time>
      </trkpt>
      <trkpt lat="44.91913" lon="3.48433">
        <ele>1113.8244628906</ele>
        <time>2019-08-13T17:47:02Z</time>
      </trkpt>
      <trkpt lat="44.91941" lon="3.48443">
        <ele>1111.4213867188</ele>
        <time>2019-08-13T17:47:05Z</time>
      </trkpt>
      <trkpt lat="44.91964" lon="3.48474">
        <ele>1111.4213867188</ele>
        <time>2019-08-13T17:47:09Z</time>
      </trkpt>
      <trkpt lat="44.9197" lon="3.4849">
        <ele>1114.7858886719</ele>
        <time>2019-08-13T17:47:11Z</time>
      </trkpt>
      <trkpt lat="44.91985" lon="3.48515">
        <ele>1116.2280273438</ele>
        <time>2019-08-13T17:47:16Z</time>
      </trkpt>
      <trkpt lat="44.91994" lon="3.48524">
        <ele>1118.1506347656</ele>
        <time>2019-08-13T17:47:19Z</time>
      </trkpt>
      <trkpt lat="44.9202" lon="3.48565">
        <ele>1121.0346679688</ele>
        <time>2019-08-13T17:47:34Z</time>
      </trkpt>
      <trkpt lat="44.92022" lon="3.48584">
        <ele>1120.0732421875</ele>
        <time>2019-08-13T17:47:41Z</time>
      </trkpt>
      <trkpt lat="44.92022" lon="3.4863">
        <ele>1117.189453125</ele>
        <time>2019-08-13T17:47:49Z</time>
      </trkpt>
      <trkpt lat="44.92022" lon="3.48637">
        <ele>1116.7087402344</ele>
        <time>2019-08-13T17:47:50Z</time>
      </trkpt>
      <trkpt lat="44.92032" lon="3.48677">
        <ele>1117.669921875</ele>
        <time>2019-08-13T17:47:58Z</time>
      </trkpt>
      <trkpt lat="44.92032" lon="3.4868">
        <ele>1117.669921875</ele>
        <time>2019-08-13T17:47:59Z</time>
      </trkpt>
    </trkseg>
  </trk>
</gpx>